<?xml version="1.0" encoding="UTF-8" standalone="no" ?>
<gpx xmlns="http://www.topografix.com/GPX/1/1" xmlns:xsi="http://www.w3.org/2001/XMLSchema-instance" xsi:schemaLocation="http://www.topografix.com/GPX/1/1 http://www.topografix.com/GPX/1/1/gpx.xsd" version="1.1" creator="VisuGPX - https://www.visugpx.com">
  <metadata>
    <name>sortie 09/01/22</name>
    <desc><![CDATA[Météo humide, température de saison ( 3° C ), vent désagréable, donc principalement route. Une seule battue. De nombreux arbres ont subi le vent de la veille. Le niveau de la Saône a monté créant quelques gênes.
Pour le reste : RAS, les gens sont restés au chaud pour préparer la galette.
]]></desc>
  </metadata>
  <trk>
    <name><![CDATA[2022-01-09 10:24]]></name>
    <desc><![CDATA[<h1>OruxMaps</h1><br /><hr align="center" width="480" style="height: 2px; width: 517px"/><h2>Nom: 2022-01-09 10:24</h2><br /><p>Temps de départ: 01/09/2022 10:23</p><p>Temps d'arrivée: 01/09/2022 11:54</p><p>Distance: 27,6km (01:31)</p><p>Temps déplacement: 01:29</p><p>Vitesse moyenne: 18,1km/h</p><p>Vitesse moyenne: 18,6km/h</p><p>Vitess Max.: 37,4km/h</p><p>Altitude minimale: 199m</p><p>Altitude maximale: 275m</p><p>Vitesse d'élévation: 525,8m/h</p><p>Vitesse de descente: -558,7m/h</p><p>Gain Altitude: 274m</p><p>Perte Altitude: -257m</p><p>Temps d'élévation: 00:31</p><p>Temps de descente: 00:27</p><hr align="center" width="480" style="height: 2px; width: 517px"/>]]></desc>
    <trkseg>
      <trkpt lat="47.68628" lon="6.04576">
        <ele>220.69</ele>
        <time>2022-01-09T09:23:18Z</time>
      </trkpt>
      <trkpt lat="47.68613" lon="6.04561">
        <ele>219.82</ele>
        <time>2022-01-09T09:23:55Z</time>
      </trkpt>
      <trkpt lat="47.68625" lon="6.04537">
        <ele>219.96</ele>
        <time>2022-01-09T09:25:59Z</time>
      </trkpt>
      <trkpt lat="47.68619" lon="6.04509">
        <ele>215.99</ele>
        <time>2022-01-09T09:26:06Z</time>
      </trkpt>
      <trkpt lat="47.68603" lon="6.04496">
        <ele>215.86</ele>
        <time>2022-01-09T09:26:11Z</time>
      </trkpt>
      <trkpt lat="47.68584" lon="6.04484">
        <ele>216.8</ele>
        <time>2022-01-09T09:26:14Z</time>
      </trkpt>
      <trkpt lat="47.68564" lon="6.04473">
        <ele>217.43</ele>
        <time>2022-01-09T09:26:17Z</time>
      </trkpt>
      <trkpt lat="47.68545" lon="6.04462">
        <ele>216.52</ele>
        <time>2022-01-09T09:26:20Z</time>
      </trkpt>
      <trkpt lat="47.68524" lon="6.04449">
        <ele>215.76</ele>
        <time>2022-01-09T09:26:23Z</time>
      </trkpt>
      <trkpt lat="47.68502" lon="6.04439">
        <ele>215.18</ele>
        <time>2022-01-09T09:26:26Z</time>
      </trkpt>
      <trkpt lat="47.6848" lon="6.04431">
        <ele>214.69</ele>
        <time>2022-01-09T09:26:29Z</time>
      </trkpt>
      <trkpt lat="47.68456" lon="6.04423">
        <ele>214.78</ele>
        <time>2022-01-09T09:26:32Z</time>
      </trkpt>
      <trkpt lat="47.68437" lon="6.04419">
        <ele>214.08</ele>
        <time>2022-01-09T09:26:34Z</time>
      </trkpt>
      <trkpt lat="47.68413" lon="6.04418">
        <ele>212.17</ele>
        <time>2022-01-09T09:26:37Z</time>
      </trkpt>
      <trkpt lat="47.68396" lon="6.0441">
        <ele>209.78</ele>
        <time>2022-01-09T09:26:41Z</time>
      </trkpt>
      <trkpt lat="47.68396" lon="6.04381">
        <ele>208.62</ele>
        <time>2022-01-09T09:26:46Z</time>
      </trkpt>
      <trkpt lat="47.68396" lon="6.04353">
        <ele>207.89</ele>
        <time>2022-01-09T09:26:50Z</time>
      </trkpt>
      <trkpt lat="47.68395" lon="6.04321">
        <ele>206.44</ele>
        <time>2022-01-09T09:26:54Z</time>
      </trkpt>
      <trkpt lat="47.68396" lon="6.04287">
        <ele>204.61</ele>
        <time>2022-01-09T09:26:58Z</time>
      </trkpt>
      <trkpt lat="47.68395" lon="6.04258">
        <ele>203.08</ele>
        <time>2022-01-09T09:27:02Z</time>
      </trkpt>
      <trkpt lat="47.68381" lon="6.04237">
        <ele>199.36</ele>
        <time>2022-01-09T09:27:11Z</time>
      </trkpt>
      <trkpt lat="47.68364" lon="6.04224">
        <ele>200.01</ele>
        <time>2022-01-09T09:27:17Z</time>
      </trkpt>
      <trkpt lat="47.68346" lon="6.04219">
        <ele>202.15</ele>
        <time>2022-01-09T09:27:21Z</time>
      </trkpt>
      <trkpt lat="47.68328" lon="6.04217">
        <ele>204.15</ele>
        <time>2022-01-09T09:27:27Z</time>
      </trkpt>
      <trkpt lat="47.68332" lon="6.04246">
        <ele>204.84</ele>
        <time>2022-01-09T09:27:53Z</time>
      </trkpt>
      <trkpt lat="47.68318" lon="6.04266">
        <ele>202.3</ele>
        <time>2022-01-09T09:28:15Z</time>
      </trkpt>
      <trkpt lat="47.68299" lon="6.04279">
        <ele>203.07</ele>
        <time>2022-01-09T09:28:22Z</time>
      </trkpt>
      <trkpt lat="47.68282" lon="6.04294">
        <ele>204.2</ele>
        <time>2022-01-09T09:28:27Z</time>
      </trkpt>
      <trkpt lat="47.68264" lon="6.04308">
        <ele>204.61</ele>
        <time>2022-01-09T09:28:32Z</time>
      </trkpt>
      <trkpt lat="47.68244" lon="6.0432">
        <ele>204.96</ele>
        <time>2022-01-09T09:28:37Z</time>
      </trkpt>
      <trkpt lat="47.68225" lon="6.04331">
        <ele>204.55</ele>
        <time>2022-01-09T09:28:41Z</time>
      </trkpt>
      <trkpt lat="47.68207" lon="6.04342">
        <ele>204.66</ele>
        <time>2022-01-09T09:28:45Z</time>
      </trkpt>
      <trkpt lat="47.68189" lon="6.04356">
        <ele>205.08</ele>
        <time>2022-01-09T09:28:50Z</time>
      </trkpt>
      <trkpt lat="47.68169" lon="6.04363">
        <ele>205.18</ele>
        <time>2022-01-09T09:28:56Z</time>
      </trkpt>
      <trkpt lat="47.68151" lon="6.04366">
        <ele>204.03</ele>
        <time>2022-01-09T09:29:00Z</time>
      </trkpt>
      <trkpt lat="47.68131" lon="6.04374">
        <ele>203.34</ele>
        <time>2022-01-09T09:29:04Z</time>
      </trkpt>
      <trkpt lat="47.68112" lon="6.04382">
        <ele>203.5</ele>
        <time>2022-01-09T09:29:08Z</time>
      </trkpt>
      <trkpt lat="47.68091" lon="6.04389">
        <ele>203.56</ele>
        <time>2022-01-09T09:29:12Z</time>
      </trkpt>
      <trkpt lat="47.68071" lon="6.04398">
        <ele>203.56</ele>
        <time>2022-01-09T09:29:16Z</time>
      </trkpt>
      <trkpt lat="47.68054" lon="6.0441">
        <ele>203.7</ele>
        <time>2022-01-09T09:29:20Z</time>
      </trkpt>
      <trkpt lat="47.6804" lon="6.04431">
        <ele>204.75</ele>
        <time>2022-01-09T09:29:24Z</time>
      </trkpt>
      <trkpt lat="47.68019" lon="6.04426">
        <ele>205.02</ele>
        <time>2022-01-09T09:29:30Z</time>
      </trkpt>
      <trkpt lat="47.68" lon="6.04421">
        <ele>204.19</ele>
        <time>2022-01-09T09:29:34Z</time>
      </trkpt>
      <trkpt lat="47.67979" lon="6.04424">
        <ele>204.28</ele>
        <time>2022-01-09T09:29:39Z</time>
      </trkpt>
      <trkpt lat="47.67957" lon="6.04426">
        <ele>205.43</ele>
        <time>2022-01-09T09:29:44Z</time>
      </trkpt>
      <trkpt lat="47.67936" lon="6.04425">
        <ele>207.71</ele>
        <time>2022-01-09T09:29:49Z</time>
      </trkpt>
      <trkpt lat="47.67915" lon="6.04424">
        <ele>208.57</ele>
        <time>2022-01-09T09:29:54Z</time>
      </trkpt>
      <trkpt lat="47.67893" lon="6.0442">
        <ele>207.62</ele>
        <time>2022-01-09T09:29:59Z</time>
      </trkpt>
      <trkpt lat="47.67872" lon="6.04418">
        <ele>207.34</ele>
        <time>2022-01-09T09:30:04Z</time>
      </trkpt>
      <trkpt lat="47.67852" lon="6.04413">
        <ele>208.09</ele>
        <time>2022-01-09T09:30:09Z</time>
      </trkpt>
      <trkpt lat="47.67832" lon="6.04411">
        <ele>209.98</ele>
        <time>2022-01-09T09:30:14Z</time>
      </trkpt>
      <trkpt lat="47.67813" lon="6.04402">
        <ele>210.43</ele>
        <time>2022-01-09T09:30:20Z</time>
      </trkpt>
      <trkpt lat="47.67794" lon="6.04395">
        <ele>211.8</ele>
        <time>2022-01-09T09:30:26Z</time>
      </trkpt>
      <trkpt lat="47.67776" lon="6.04395">
        <ele>211.91</ele>
        <time>2022-01-09T09:30:31Z</time>
      </trkpt>
      <trkpt lat="47.67757" lon="6.04386">
        <ele>212.26</ele>
        <time>2022-01-09T09:30:37Z</time>
      </trkpt>
      <trkpt lat="47.67738" lon="6.04373">
        <ele>210.03</ele>
        <time>2022-01-09T09:30:44Z</time>
      </trkpt>
      <trkpt lat="47.67719" lon="6.04361">
        <ele>209.62</ele>
        <time>2022-01-09T09:30:51Z</time>
      </trkpt>
      <trkpt lat="47.677" lon="6.04348">
        <ele>209.86</ele>
        <time>2022-01-09T09:30:58Z</time>
      </trkpt>
      <trkpt lat="47.67683" lon="6.04332">
        <ele>211.42</ele>
        <time>2022-01-09T09:31:05Z</time>
      </trkpt>
      <trkpt lat="47.67666" lon="6.04318">
        <ele>211.31</ele>
        <time>2022-01-09T09:31:10Z</time>
      </trkpt>
      <trkpt lat="47.67649" lon="6.04299">
        <ele>212.35</ele>
        <time>2022-01-09T09:31:18Z</time>
      </trkpt>
      <trkpt lat="47.67633" lon="6.04279">
        <ele>214.14</ele>
        <time>2022-01-09T09:31:24Z</time>
      </trkpt>
      <trkpt lat="47.67616" lon="6.04265">
        <ele>216.06</ele>
        <time>2022-01-09T09:31:30Z</time>
      </trkpt>
      <trkpt lat="47.67605" lon="6.04242">
        <ele>216.37</ele>
        <time>2022-01-09T09:31:35Z</time>
      </trkpt>
      <trkpt lat="47.67592" lon="6.04217">
        <ele>217.93</ele>
        <time>2022-01-09T09:31:41Z</time>
      </trkpt>
      <trkpt lat="47.67578" lon="6.04198">
        <ele>219.33</ele>
        <time>2022-01-09T09:31:47Z</time>
      </trkpt>
      <trkpt lat="47.67562" lon="6.0418">
        <ele>220.67</ele>
        <time>2022-01-09T09:31:53Z</time>
      </trkpt>
      <trkpt lat="47.67546" lon="6.04165">
        <ele>221.16</ele>
        <time>2022-01-09T09:31:58Z</time>
      </trkpt>
      <trkpt lat="47.6753" lon="6.04147">
        <ele>221.11</ele>
        <time>2022-01-09T09:32:03Z</time>
      </trkpt>
      <trkpt lat="47.67514" lon="6.04126">
        <ele>220.55</ele>
        <time>2022-01-09T09:32:08Z</time>
      </trkpt>
      <trkpt lat="47.67498" lon="6.04107">
        <ele>221.05</ele>
        <time>2022-01-09T09:32:13Z</time>
      </trkpt>
      <trkpt lat="47.67486" lon="6.04085">
        <ele>221.41</ele>
        <time>2022-01-09T09:32:18Z</time>
      </trkpt>
      <trkpt lat="47.67477" lon="6.04061">
        <ele>221.64</ele>
        <time>2022-01-09T09:32:23Z</time>
      </trkpt>
      <trkpt lat="47.67461" lon="6.04041">
        <ele>222.18</ele>
        <time>2022-01-09T09:32:29Z</time>
      </trkpt>
      <trkpt lat="47.67444" lon="6.0402">
        <ele>223.46</ele>
        <time>2022-01-09T09:32:34Z</time>
      </trkpt>
      <trkpt lat="47.67431" lon="6.03994">
        <ele>224.1</ele>
        <time>2022-01-09T09:32:39Z</time>
      </trkpt>
      <trkpt lat="47.67415" lon="6.03979">
        <ele>224.74</ele>
        <time>2022-01-09T09:32:43Z</time>
      </trkpt>
      <trkpt lat="47.67401" lon="6.03962">
        <ele>225.65</ele>
        <time>2022-01-09T09:32:47Z</time>
      </trkpt>
      <trkpt lat="47.67384" lon="6.03942">
        <ele>226.6</ele>
        <time>2022-01-09T09:32:52Z</time>
      </trkpt>
      <trkpt lat="47.67371" lon="6.0392">
        <ele>227.46</ele>
        <time>2022-01-09T09:32:57Z</time>
      </trkpt>
      <trkpt lat="47.67355" lon="6.03899">
        <ele>228.14</ele>
        <time>2022-01-09T09:33:02Z</time>
      </trkpt>
      <trkpt lat="47.6734" lon="6.03876">
        <ele>228.73</ele>
        <time>2022-01-09T09:33:07Z</time>
      </trkpt>
      <trkpt lat="47.67326" lon="6.03858">
        <ele>228.14</ele>
        <time>2022-01-09T09:33:12Z</time>
      </trkpt>
      <trkpt lat="47.67316" lon="6.03835">
        <ele>227.72</ele>
        <time>2022-01-09T09:33:18Z</time>
      </trkpt>
      <trkpt lat="47.67303" lon="6.03816">
        <ele>228.64</ele>
        <time>2022-01-09T09:33:25Z</time>
      </trkpt>
      <trkpt lat="47.67283" lon="6.03805">
        <ele>228.89</ele>
        <time>2022-01-09T09:33:32Z</time>
      </trkpt>
      <trkpt lat="47.67266" lon="6.0379">
        <ele>230.41</ele>
        <time>2022-01-09T09:33:40Z</time>
      </trkpt>
      <trkpt lat="47.67267" lon="6.03759">
        <ele>231.46</ele>
        <time>2022-01-09T09:33:46Z</time>
      </trkpt>
      <trkpt lat="47.67255" lon="6.03737">
        <ele>232.72</ele>
        <time>2022-01-09T09:33:54Z</time>
      </trkpt>
      <trkpt lat="47.67244" lon="6.03716">
        <ele>234.91</ele>
        <time>2022-01-09T09:34:02Z</time>
      </trkpt>
      <trkpt lat="47.67229" lon="6.03699">
        <ele>237.23</ele>
        <time>2022-01-09T09:34:11Z</time>
      </trkpt>
      <trkpt lat="47.67226" lon="6.03672">
        <ele>237.29</ele>
        <time>2022-01-09T09:34:18Z</time>
      </trkpt>
      <trkpt lat="47.67215" lon="6.0365">
        <ele>237.18</ele>
        <time>2022-01-09T09:34:26Z</time>
      </trkpt>
      <trkpt lat="47.67205" lon="6.03627">
        <ele>237.18</ele>
        <time>2022-01-09T09:34:34Z</time>
      </trkpt>
      <trkpt lat="47.67193" lon="6.03605">
        <ele>238.3</ele>
        <time>2022-01-09T09:34:42Z</time>
      </trkpt>
      <trkpt lat="47.67178" lon="6.03589">
        <ele>240.94</ele>
        <time>2022-01-09T09:34:50Z</time>
      </trkpt>
      <trkpt lat="47.67166" lon="6.03566">
        <ele>241.88</ele>
        <time>2022-01-09T09:34:58Z</time>
      </trkpt>
      <trkpt lat="47.67151" lon="6.0355">
        <ele>248.34</ele>
        <time>2022-01-09T09:35:23Z</time>
      </trkpt>
      <trkpt lat="47.6714" lon="6.03526">
        <ele>248.26</ele>
        <time>2022-01-09T09:35:27Z</time>
      </trkpt>
      <trkpt lat="47.67125" lon="6.035">
        <ele>247.53</ele>
        <time>2022-01-09T09:35:31Z</time>
      </trkpt>
      <trkpt lat="47.67111" lon="6.03474">
        <ele>246.94</ele>
        <time>2022-01-09T09:35:35Z</time>
      </trkpt>
      <trkpt lat="47.67096" lon="6.0345">
        <ele>246.64</ele>
        <time>2022-01-09T09:35:39Z</time>
      </trkpt>
      <trkpt lat="47.6708" lon="6.03426">
        <ele>246.39</ele>
        <time>2022-01-09T09:35:43Z</time>
      </trkpt>
      <trkpt lat="47.67065" lon="6.03402">
        <ele>245.85</ele>
        <time>2022-01-09T09:35:47Z</time>
      </trkpt>
      <trkpt lat="47.67051" lon="6.03376">
        <ele>245.49</ele>
        <time>2022-01-09T09:35:51Z</time>
      </trkpt>
      <trkpt lat="47.67034" lon="6.03355">
        <ele>245.5</ele>
        <time>2022-01-09T09:35:55Z</time>
      </trkpt>
      <trkpt lat="47.67014" lon="6.03338">
        <ele>246.09</ele>
        <time>2022-01-09T09:35:59Z</time>
      </trkpt>
      <trkpt lat="47.66999" lon="6.03311">
        <ele>246.15</ele>
        <time>2022-01-09T09:36:03Z</time>
      </trkpt>
      <trkpt lat="47.66981" lon="6.03288">
        <ele>245.59</ele>
        <time>2022-01-09T09:36:07Z</time>
      </trkpt>
      <trkpt lat="47.66966" lon="6.0327">
        <ele>245.11</ele>
        <time>2022-01-09T09:36:10Z</time>
      </trkpt>
      <trkpt lat="47.6695" lon="6.03246">
        <ele>244.45</ele>
        <time>2022-01-09T09:36:13Z</time>
      </trkpt>
      <trkpt lat="47.66932" lon="6.03223">
        <ele>243.43</ele>
        <time>2022-01-09T09:36:16Z</time>
      </trkpt>
      <trkpt lat="47.66913" lon="6.03202">
        <ele>242.75</ele>
        <time>2022-01-09T09:36:19Z</time>
      </trkpt>
      <trkpt lat="47.6689" lon="6.03185">
        <ele>241.86</ele>
        <time>2022-01-09T09:36:22Z</time>
      </trkpt>
      <trkpt lat="47.66864" lon="6.03173">
        <ele>240.79</ele>
        <time>2022-01-09T09:36:25Z</time>
      </trkpt>
      <trkpt lat="47.66845" lon="6.03171">
        <ele>240.29</ele>
        <time>2022-01-09T09:36:27Z</time>
      </trkpt>
      <trkpt lat="47.66826" lon="6.03172">
        <ele>240.26</ele>
        <time>2022-01-09T09:36:29Z</time>
      </trkpt>
      <trkpt lat="47.66807" lon="6.03173">
        <ele>240.3</ele>
        <time>2022-01-09T09:36:31Z</time>
      </trkpt>
      <trkpt lat="47.66788" lon="6.0317">
        <ele>239.61</ele>
        <time>2022-01-09T09:36:33Z</time>
      </trkpt>
      <trkpt lat="47.6677" lon="6.03164">
        <ele>238.54</ele>
        <time>2022-01-09T09:36:35Z</time>
      </trkpt>
      <trkpt lat="47.66752" lon="6.03157">
        <ele>237.52</ele>
        <time>2022-01-09T09:36:37Z</time>
      </trkpt>
      <trkpt lat="47.66734" lon="6.03148">
        <ele>236.77</ele>
        <time>2022-01-09T09:36:39Z</time>
      </trkpt>
      <trkpt lat="47.66709" lon="6.03134">
        <ele>236.58</ele>
        <time>2022-01-09T09:36:42Z</time>
      </trkpt>
      <trkpt lat="47.66688" lon="6.03115">
        <ele>235.47</ele>
        <time>2022-01-09T09:36:45Z</time>
      </trkpt>
      <trkpt lat="47.66666" lon="6.03101">
        <ele>234.38</ele>
        <time>2022-01-09T09:36:48Z</time>
      </trkpt>
      <trkpt lat="47.66643" lon="6.031">
        <ele>234.29</ele>
        <time>2022-01-09T09:36:51Z</time>
      </trkpt>
      <trkpt lat="47.6662" lon="6.03102">
        <ele>233.91</ele>
        <time>2022-01-09T09:36:54Z</time>
      </trkpt>
      <trkpt lat="47.66597" lon="6.03102">
        <ele>232.57</ele>
        <time>2022-01-09T09:36:57Z</time>
      </trkpt>
      <trkpt lat="47.66575" lon="6.03098">
        <ele>230.8</ele>
        <time>2022-01-09T09:37:00Z</time>
      </trkpt>
      <trkpt lat="47.66554" lon="6.03096">
        <ele>229.21</ele>
        <time>2022-01-09T09:37:03Z</time>
      </trkpt>
      <trkpt lat="47.66532" lon="6.03097">
        <ele>228.42</ele>
        <time>2022-01-09T09:37:06Z</time>
      </trkpt>
      <trkpt lat="47.66513" lon="6.03094">
        <ele>227.5</ele>
        <time>2022-01-09T09:37:09Z</time>
      </trkpt>
      <trkpt lat="47.66493" lon="6.03091">
        <ele>226.49</ele>
        <time>2022-01-09T09:37:12Z</time>
      </trkpt>
      <trkpt lat="47.66473" lon="6.0309">
        <ele>226.07</ele>
        <time>2022-01-09T09:37:15Z</time>
      </trkpt>
      <trkpt lat="47.66455" lon="6.03085">
        <ele>225.8</ele>
        <time>2022-01-09T09:37:18Z</time>
      </trkpt>
      <trkpt lat="47.66434" lon="6.03077">
        <ele>225.59</ele>
        <time>2022-01-09T09:37:22Z</time>
      </trkpt>
      <trkpt lat="47.66418" lon="6.03063">
        <ele>225.96</ele>
        <time>2022-01-09T09:37:27Z</time>
      </trkpt>
      <trkpt lat="47.66401" lon="6.03046">
        <ele>226.47</ele>
        <time>2022-01-09T09:37:34Z</time>
      </trkpt>
      <trkpt lat="47.66383" lon="6.03033">
        <ele>227.95</ele>
        <time>2022-01-09T09:37:39Z</time>
      </trkpt>
      <trkpt lat="47.66368" lon="6.03014">
        <ele>228.82</ele>
        <time>2022-01-09T09:37:44Z</time>
      </trkpt>
      <trkpt lat="47.66354" lon="6.02993">
        <ele>229.76</ele>
        <time>2022-01-09T09:37:49Z</time>
      </trkpt>
      <trkpt lat="47.66335" lon="6.0298">
        <ele>230.37</ele>
        <time>2022-01-09T09:37:54Z</time>
      </trkpt>
      <trkpt lat="47.6632" lon="6.02962">
        <ele>230.27</ele>
        <time>2022-01-09T09:37:59Z</time>
      </trkpt>
      <trkpt lat="47.66304" lon="6.02942">
        <ele>229.66</ele>
        <time>2022-01-09T09:38:04Z</time>
      </trkpt>
      <trkpt lat="47.66288" lon="6.02921">
        <ele>229.12</ele>
        <time>2022-01-09T09:38:09Z</time>
      </trkpt>
      <trkpt lat="47.66275" lon="6.02902">
        <ele>228.37</ele>
        <time>2022-01-09T09:38:13Z</time>
      </trkpt>
      <trkpt lat="47.66261" lon="6.02882">
        <ele>227.76</ele>
        <time>2022-01-09T09:38:17Z</time>
      </trkpt>
      <trkpt lat="47.66246" lon="6.02862">
        <ele>227.2</ele>
        <time>2022-01-09T09:38:21Z</time>
      </trkpt>
      <trkpt lat="47.66231" lon="6.02843">
        <ele>226.84</ele>
        <time>2022-01-09T09:38:25Z</time>
      </trkpt>
      <trkpt lat="47.66219" lon="6.02815">
        <ele>226</ele>
        <time>2022-01-09T09:38:29Z</time>
      </trkpt>
      <trkpt lat="47.66209" lon="6.02793">
        <ele>225.02</ele>
        <time>2022-01-09T09:38:32Z</time>
      </trkpt>
      <trkpt lat="47.66201" lon="6.02762">
        <ele>224.58</ele>
        <time>2022-01-09T09:38:36Z</time>
      </trkpt>
      <trkpt lat="47.66198" lon="6.02728">
        <ele>224.27</ele>
        <time>2022-01-09T09:38:40Z</time>
      </trkpt>
      <trkpt lat="47.66196" lon="6.02692">
        <ele>224.33</ele>
        <time>2022-01-09T09:38:44Z</time>
      </trkpt>
      <trkpt lat="47.66181" lon="6.02665">
        <ele>223.74</ele>
        <time>2022-01-09T09:38:48Z</time>
      </trkpt>
      <trkpt lat="47.6616" lon="6.02657">
        <ele>223.19</ele>
        <time>2022-01-09T09:38:51Z</time>
      </trkpt>
      <trkpt lat="47.66138" lon="6.02646">
        <ele>222.69</ele>
        <time>2022-01-09T09:38:54Z</time>
      </trkpt>
      <trkpt lat="47.66119" lon="6.02631">
        <ele>222.64</ele>
        <time>2022-01-09T09:38:57Z</time>
      </trkpt>
      <trkpt lat="47.661" lon="6.02623">
        <ele>222</ele>
        <time>2022-01-09T09:39:00Z</time>
      </trkpt>
      <trkpt lat="47.66082" lon="6.02626">
        <ele>221.79</ele>
        <time>2022-01-09T09:39:03Z</time>
      </trkpt>
      <trkpt lat="47.66058" lon="6.02632">
        <ele>222.2</ele>
        <time>2022-01-09T09:39:07Z</time>
      </trkpt>
      <trkpt lat="47.66038" lon="6.02638">
        <ele>222.06</ele>
        <time>2022-01-09T09:39:11Z</time>
      </trkpt>
      <trkpt lat="47.66016" lon="6.02648">
        <ele>221.03</ele>
        <time>2022-01-09T09:39:16Z</time>
      </trkpt>
      <trkpt lat="47.65998" lon="6.02669">
        <ele>220.42</ele>
        <time>2022-01-09T09:39:21Z</time>
      </trkpt>
      <trkpt lat="47.65982" lon="6.02682">
        <ele>219.92</ele>
        <time>2022-01-09T09:39:24Z</time>
      </trkpt>
      <trkpt lat="47.65962" lon="6.02697">
        <ele>219.49</ele>
        <time>2022-01-09T09:39:28Z</time>
      </trkpt>
      <trkpt lat="47.65943" lon="6.02711">
        <ele>218.73</ele>
        <time>2022-01-09T09:39:32Z</time>
      </trkpt>
      <trkpt lat="47.65926" lon="6.02723">
        <ele>217.96</ele>
        <time>2022-01-09T09:39:36Z</time>
      </trkpt>
      <trkpt lat="47.65908" lon="6.02734">
        <ele>217.09</ele>
        <time>2022-01-09T09:39:40Z</time>
      </trkpt>
      <trkpt lat="47.65891" lon="6.02746">
        <ele>216.15</ele>
        <time>2022-01-09T09:39:44Z</time>
      </trkpt>
      <trkpt lat="47.65872" lon="6.02759">
        <ele>215.46</ele>
        <time>2022-01-09T09:39:48Z</time>
      </trkpt>
      <trkpt lat="47.65854" lon="6.0277">
        <ele>214.9</ele>
        <time>2022-01-09T09:39:52Z</time>
      </trkpt>
      <trkpt lat="47.65836" lon="6.0278">
        <ele>214.69</ele>
        <time>2022-01-09T09:39:56Z</time>
      </trkpt>
      <trkpt lat="47.65818" lon="6.02789">
        <ele>214.48</ele>
        <time>2022-01-09T09:40:00Z</time>
      </trkpt>
      <trkpt lat="47.65798" lon="6.02798">
        <ele>214.11</ele>
        <time>2022-01-09T09:40:04Z</time>
      </trkpt>
      <trkpt lat="47.65778" lon="6.02807">
        <ele>213.48</ele>
        <time>2022-01-09T09:40:08Z</time>
      </trkpt>
      <trkpt lat="47.65757" lon="6.02816">
        <ele>212.58</ele>
        <time>2022-01-09T09:40:12Z</time>
      </trkpt>
      <trkpt lat="47.65736" lon="6.02824">
        <ele>212.26</ele>
        <time>2022-01-09T09:40:17Z</time>
      </trkpt>
      <trkpt lat="47.65718" lon="6.02833">
        <ele>212.68</ele>
        <time>2022-01-09T09:40:21Z</time>
      </trkpt>
      <trkpt lat="47.65699" lon="6.02843">
        <ele>213.15</ele>
        <time>2022-01-09T09:40:25Z</time>
      </trkpt>
      <trkpt lat="47.65681" lon="6.02851">
        <ele>213.27</ele>
        <time>2022-01-09T09:40:29Z</time>
      </trkpt>
      <trkpt lat="47.65662" lon="6.02857">
        <ele>212.83</ele>
        <time>2022-01-09T09:40:33Z</time>
      </trkpt>
      <trkpt lat="47.65643" lon="6.02863">
        <ele>212.26</ele>
        <time>2022-01-09T09:40:37Z</time>
      </trkpt>
      <trkpt lat="47.65623" lon="6.02869">
        <ele>211.69</ele>
        <time>2022-01-09T09:40:41Z</time>
      </trkpt>
      <trkpt lat="47.65603" lon="6.02874">
        <ele>211.02</ele>
        <time>2022-01-09T09:40:45Z</time>
      </trkpt>
      <trkpt lat="47.65583" lon="6.0288">
        <ele>210.44</ele>
        <time>2022-01-09T09:40:49Z</time>
      </trkpt>
      <trkpt lat="47.65563" lon="6.02885">
        <ele>210.06</ele>
        <time>2022-01-09T09:40:53Z</time>
      </trkpt>
      <trkpt lat="47.65544" lon="6.0289">
        <ele>209.89</ele>
        <time>2022-01-09T09:40:57Z</time>
      </trkpt>
      <trkpt lat="47.65523" lon="6.02897">
        <ele>210.21</ele>
        <time>2022-01-09T09:41:02Z</time>
      </trkpt>
      <trkpt lat="47.65503" lon="6.02903">
        <ele>211.05</ele>
        <time>2022-01-09T09:41:07Z</time>
      </trkpt>
      <trkpt lat="47.65482" lon="6.02911">
        <ele>211.25</ele>
        <time>2022-01-09T09:41:12Z</time>
      </trkpt>
      <trkpt lat="47.65465" lon="6.02919">
        <ele>211.34</ele>
        <time>2022-01-09T09:41:16Z</time>
      </trkpt>
      <trkpt lat="47.65447" lon="6.02928">
        <ele>211.35</ele>
        <time>2022-01-09T09:41:20Z</time>
      </trkpt>
      <trkpt lat="47.65427" lon="6.02936">
        <ele>211.03</ele>
        <time>2022-01-09T09:41:24Z</time>
      </trkpt>
      <trkpt lat="47.65408" lon="6.02945">
        <ele>210.87</ele>
        <time>2022-01-09T09:41:28Z</time>
      </trkpt>
      <trkpt lat="47.65387" lon="6.02955">
        <ele>211.08</ele>
        <time>2022-01-09T09:41:33Z</time>
      </trkpt>
      <trkpt lat="47.65366" lon="6.02965">
        <ele>211.83</ele>
        <time>2022-01-09T09:41:38Z</time>
      </trkpt>
      <trkpt lat="47.65346" lon="6.02975">
        <ele>212.13</ele>
        <time>2022-01-09T09:41:43Z</time>
      </trkpt>
      <trkpt lat="47.65326" lon="6.02985">
        <ele>212.81</ele>
        <time>2022-01-09T09:41:48Z</time>
      </trkpt>
      <trkpt lat="47.65306" lon="6.02993">
        <ele>213.19</ele>
        <time>2022-01-09T09:41:52Z</time>
      </trkpt>
      <trkpt lat="47.65286" lon="6.02998">
        <ele>213.95</ele>
        <time>2022-01-09T09:41:56Z</time>
      </trkpt>
      <trkpt lat="47.65266" lon="6.03003">
        <ele>214.81</ele>
        <time>2022-01-09T09:42:00Z</time>
      </trkpt>
      <trkpt lat="47.65245" lon="6.03006">
        <ele>215.11</ele>
        <time>2022-01-09T09:42:04Z</time>
      </trkpt>
      <trkpt lat="47.65224" lon="6.03009">
        <ele>215.24</ele>
        <time>2022-01-09T09:42:08Z</time>
      </trkpt>
      <trkpt lat="47.65204" lon="6.03012">
        <ele>215.51</ele>
        <time>2022-01-09T09:42:12Z</time>
      </trkpt>
      <trkpt lat="47.65184" lon="6.0302">
        <ele>215.88</ele>
        <time>2022-01-09T09:42:16Z</time>
      </trkpt>
      <trkpt lat="47.65165" lon="6.03033">
        <ele>216.23</ele>
        <time>2022-01-09T09:42:20Z</time>
      </trkpt>
      <trkpt lat="47.65148" lon="6.03048">
        <ele>216.47</ele>
        <time>2022-01-09T09:42:24Z</time>
      </trkpt>
      <trkpt lat="47.6513" lon="6.03059">
        <ele>216.3</ele>
        <time>2022-01-09T09:42:28Z</time>
      </trkpt>
      <trkpt lat="47.65112" lon="6.03063">
        <ele>216.4</ele>
        <time>2022-01-09T09:42:32Z</time>
      </trkpt>
      <trkpt lat="47.6509" lon="6.03062">
        <ele>217.37</ele>
        <time>2022-01-09T09:42:37Z</time>
      </trkpt>
      <trkpt lat="47.6507" lon="6.03052">
        <ele>217.69</ele>
        <time>2022-01-09T09:42:42Z</time>
      </trkpt>
      <trkpt lat="47.65071" lon="6.03079">
        <ele>217.78</ele>
        <time>2022-01-09T09:42:49Z</time>
      </trkpt>
      <trkpt lat="47.65078" lon="6.03104">
        <ele>218.21</ele>
        <time>2022-01-09T09:42:53Z</time>
      </trkpt>
      <trkpt lat="47.65076" lon="6.03134">
        <ele>218.04</ele>
        <time>2022-01-09T09:42:57Z</time>
      </trkpt>
      <trkpt lat="47.65065" lon="6.0316">
        <ele>217.81</ele>
        <time>2022-01-09T09:43:01Z</time>
      </trkpt>
      <trkpt lat="47.65053" lon="6.03183">
        <ele>217.84</ele>
        <time>2022-01-09T09:43:05Z</time>
      </trkpt>
      <trkpt lat="47.65039" lon="6.03207">
        <ele>218.08</ele>
        <time>2022-01-09T09:43:10Z</time>
      </trkpt>
      <trkpt lat="47.65024" lon="6.03227">
        <ele>218.19</ele>
        <time>2022-01-09T09:43:15Z</time>
      </trkpt>
      <trkpt lat="47.65006" lon="6.03246">
        <ele>218.25</ele>
        <time>2022-01-09T09:43:20Z</time>
      </trkpt>
      <trkpt lat="47.64988" lon="6.03257">
        <ele>217.74</ele>
        <time>2022-01-09T09:43:24Z</time>
      </trkpt>
      <trkpt lat="47.6497" lon="6.0327">
        <ele>217.31</ele>
        <time>2022-01-09T09:43:28Z</time>
      </trkpt>
      <trkpt lat="47.64949" lon="6.03285">
        <ele>216.19</ele>
        <time>2022-01-09T09:43:32Z</time>
      </trkpt>
      <trkpt lat="47.64929" lon="6.03295">
        <ele>216.19</ele>
        <time>2022-01-09T09:43:36Z</time>
      </trkpt>
      <trkpt lat="47.64909" lon="6.03306">
        <ele>216.62</ele>
        <time>2022-01-09T09:43:40Z</time>
      </trkpt>
      <trkpt lat="47.64887" lon="6.03318">
        <ele>217.14</ele>
        <time>2022-01-09T09:43:44Z</time>
      </trkpt>
      <trkpt lat="47.64867" lon="6.03331">
        <ele>217.11</ele>
        <time>2022-01-09T09:43:48Z</time>
      </trkpt>
      <trkpt lat="47.64849" lon="6.03342">
        <ele>217.29</ele>
        <time>2022-01-09T09:43:52Z</time>
      </trkpt>
      <trkpt lat="47.64831" lon="6.03351">
        <ele>216.43</ele>
        <time>2022-01-09T09:43:56Z</time>
      </trkpt>
      <trkpt lat="47.64812" lon="6.03363">
        <ele>217.48</ele>
        <time>2022-01-09T09:44:02Z</time>
      </trkpt>
      <trkpt lat="47.64795" lon="6.03372">
        <ele>218.12</ele>
        <time>2022-01-09T09:44:06Z</time>
      </trkpt>
      <trkpt lat="47.64777" lon="6.03384">
        <ele>218.17</ele>
        <time>2022-01-09T09:44:10Z</time>
      </trkpt>
      <trkpt lat="47.64757" lon="6.03397">
        <ele>217.96</ele>
        <time>2022-01-09T09:44:14Z</time>
      </trkpt>
      <trkpt lat="47.6474" lon="6.03409">
        <ele>217.92</ele>
        <time>2022-01-09T09:44:18Z</time>
      </trkpt>
      <trkpt lat="47.64723" lon="6.03422">
        <ele>218.02</ele>
        <time>2022-01-09T09:44:22Z</time>
      </trkpt>
      <trkpt lat="47.64705" lon="6.03435">
        <ele>218.09</ele>
        <time>2022-01-09T09:44:26Z</time>
      </trkpt>
      <trkpt lat="47.64689" lon="6.03447">
        <ele>217.93</ele>
        <time>2022-01-09T09:44:30Z</time>
      </trkpt>
      <trkpt lat="47.64672" lon="6.03461">
        <ele>217.52</ele>
        <time>2022-01-09T09:44:34Z</time>
      </trkpt>
      <trkpt lat="47.64658" lon="6.03478">
        <ele>217.14</ele>
        <time>2022-01-09T09:44:38Z</time>
      </trkpt>
      <trkpt lat="47.64642" lon="6.035">
        <ele>216.73</ele>
        <time>2022-01-09T09:44:43Z</time>
      </trkpt>
      <trkpt lat="47.64626" lon="6.03521">
        <ele>216.58</ele>
        <time>2022-01-09T09:44:48Z</time>
      </trkpt>
      <trkpt lat="47.64609" lon="6.03542">
        <ele>216.55</ele>
        <time>2022-01-09T09:44:53Z</time>
      </trkpt>
      <trkpt lat="47.64595" lon="6.0356">
        <ele>216.46</ele>
        <time>2022-01-09T09:44:57Z</time>
      </trkpt>
      <trkpt lat="47.64578" lon="6.03582">
        <ele>216.65</ele>
        <time>2022-01-09T09:45:02Z</time>
      </trkpt>
      <trkpt lat="47.64564" lon="6.03599">
        <ele>216.93</ele>
        <time>2022-01-09T09:45:06Z</time>
      </trkpt>
      <trkpt lat="47.64546" lon="6.0361">
        <ele>216.92</ele>
        <time>2022-01-09T09:45:10Z</time>
      </trkpt>
      <trkpt lat="47.64528" lon="6.03617">
        <ele>217.22</ele>
        <time>2022-01-09T09:45:14Z</time>
      </trkpt>
      <trkpt lat="47.64509" lon="6.03622">
        <ele>217.67</ele>
        <time>2022-01-09T09:45:18Z</time>
      </trkpt>
      <trkpt lat="47.64489" lon="6.03625">
        <ele>217.8</ele>
        <time>2022-01-09T09:45:22Z</time>
      </trkpt>
      <trkpt lat="47.6447" lon="6.03626">
        <ele>218.08</ele>
        <time>2022-01-09T09:45:26Z</time>
      </trkpt>
      <trkpt lat="47.64452" lon="6.03624">
        <ele>217.97</ele>
        <time>2022-01-09T09:45:30Z</time>
      </trkpt>
      <trkpt lat="47.64432" lon="6.03622">
        <ele>218.08</ele>
        <time>2022-01-09T09:45:35Z</time>
      </trkpt>
      <trkpt lat="47.64415" lon="6.03635">
        <ele>218.36</ele>
        <time>2022-01-09T09:45:40Z</time>
      </trkpt>
      <trkpt lat="47.64403" lon="6.03658">
        <ele>218.44</ele>
        <time>2022-01-09T09:45:45Z</time>
      </trkpt>
      <trkpt lat="47.64392" lon="6.03682">
        <ele>217.45</ele>
        <time>2022-01-09T09:45:50Z</time>
      </trkpt>
      <trkpt lat="47.64375" lon="6.03698">
        <ele>218.99</ele>
        <time>2022-01-09T09:45:59Z</time>
      </trkpt>
      <trkpt lat="47.64357" lon="6.03703">
        <ele>220.34</ele>
        <time>2022-01-09T09:46:07Z</time>
      </trkpt>
      <trkpt lat="47.64338" lon="6.03706">
        <ele>221.2</ele>
        <time>2022-01-09T09:46:14Z</time>
      </trkpt>
      <trkpt lat="47.64317" lon="6.03707">
        <ele>222.35</ele>
        <time>2022-01-09T09:46:21Z</time>
      </trkpt>
      <trkpt lat="47.64296" lon="6.03707">
        <ele>222.86</ele>
        <time>2022-01-09T09:46:27Z</time>
      </trkpt>
      <trkpt lat="47.64278" lon="6.03707">
        <ele>222.92</ele>
        <time>2022-01-09T09:46:32Z</time>
      </trkpt>
      <trkpt lat="47.64258" lon="6.037">
        <ele>222.34</ele>
        <time>2022-01-09T09:46:37Z</time>
      </trkpt>
      <trkpt lat="47.64238" lon="6.03694">
        <ele>222.34</ele>
        <time>2022-01-09T09:46:42Z</time>
      </trkpt>
      <trkpt lat="47.64219" lon="6.03689">
        <ele>222.1</ele>
        <time>2022-01-09T09:46:47Z</time>
      </trkpt>
      <trkpt lat="47.642" lon="6.03684">
        <ele>222.86</ele>
        <time>2022-01-09T09:46:52Z</time>
      </trkpt>
      <trkpt lat="47.64179" lon="6.03683">
        <ele>222.43</ele>
        <time>2022-01-09T09:46:57Z</time>
      </trkpt>
      <trkpt lat="47.64159" lon="6.03683">
        <ele>222.72</ele>
        <time>2022-01-09T09:47:02Z</time>
      </trkpt>
      <trkpt lat="47.64137" lon="6.03681">
        <ele>224</ele>
        <time>2022-01-09T09:47:07Z</time>
      </trkpt>
      <trkpt lat="47.64117" lon="6.03673">
        <ele>224.39</ele>
        <time>2022-01-09T09:47:12Z</time>
      </trkpt>
      <trkpt lat="47.64097" lon="6.03664">
        <ele>224.34</ele>
        <time>2022-01-09T09:47:17Z</time>
      </trkpt>
      <trkpt lat="47.64079" lon="6.03658">
        <ele>223.54</ele>
        <time>2022-01-09T09:47:22Z</time>
      </trkpt>
      <trkpt lat="47.64062" lon="6.03648">
        <ele>222.88</ele>
        <time>2022-01-09T09:47:26Z</time>
      </trkpt>
      <trkpt lat="47.64045" lon="6.03637">
        <ele>223.06</ele>
        <time>2022-01-09T09:47:31Z</time>
      </trkpt>
      <trkpt lat="47.64024" lon="6.03622">
        <ele>223.63</ele>
        <time>2022-01-09T09:47:36Z</time>
      </trkpt>
      <trkpt lat="47.64006" lon="6.03608">
        <ele>224.77</ele>
        <time>2022-01-09T09:47:40Z</time>
      </trkpt>
      <trkpt lat="47.63984" lon="6.03592">
        <ele>225.05</ele>
        <time>2022-01-09T09:47:44Z</time>
      </trkpt>
      <trkpt lat="47.63966" lon="6.03583">
        <ele>224.89</ele>
        <time>2022-01-09T09:47:47Z</time>
      </trkpt>
      <trkpt lat="47.63943" lon="6.03576">
        <ele>224.67</ele>
        <time>2022-01-09T09:47:51Z</time>
      </trkpt>
      <trkpt lat="47.6392" lon="6.03568">
        <ele>224.27</ele>
        <time>2022-01-09T09:47:55Z</time>
      </trkpt>
      <trkpt lat="47.63897" lon="6.0356">
        <ele>223.68</ele>
        <time>2022-01-09T09:47:59Z</time>
      </trkpt>
      <trkpt lat="47.6388" lon="6.0355">
        <ele>223.97</ele>
        <time>2022-01-09T09:48:02Z</time>
      </trkpt>
      <trkpt lat="47.63861" lon="6.03541">
        <ele>224.04</ele>
        <time>2022-01-09T09:48:05Z</time>
      </trkpt>
      <trkpt lat="47.63842" lon="6.03534">
        <ele>223.9</ele>
        <time>2022-01-09T09:48:08Z</time>
      </trkpt>
      <trkpt lat="47.63821" lon="6.0353">
        <ele>222.96</ele>
        <time>2022-01-09T09:48:11Z</time>
      </trkpt>
      <trkpt lat="47.63799" lon="6.03526">
        <ele>221.8</ele>
        <time>2022-01-09T09:48:14Z</time>
      </trkpt>
      <trkpt lat="47.63778" lon="6.03517">
        <ele>221.37</ele>
        <time>2022-01-09T09:48:17Z</time>
      </trkpt>
      <trkpt lat="47.6376" lon="6.03513">
        <ele>221.14</ele>
        <time>2022-01-09T09:48:20Z</time>
      </trkpt>
      <trkpt lat="47.6374" lon="6.03518">
        <ele>220.46</ele>
        <time>2022-01-09T09:48:23Z</time>
      </trkpt>
      <trkpt lat="47.6372" lon="6.03528">
        <ele>219.51</ele>
        <time>2022-01-09T09:48:26Z</time>
      </trkpt>
      <trkpt lat="47.63701" lon="6.03535">
        <ele>218.81</ele>
        <time>2022-01-09T09:48:29Z</time>
      </trkpt>
      <trkpt lat="47.63685" lon="6.03517">
        <ele>218.72</ele>
        <time>2022-01-09T09:48:33Z</time>
      </trkpt>
      <trkpt lat="47.63673" lon="6.03486">
        <ele>217.97</ele>
        <time>2022-01-09T09:48:37Z</time>
      </trkpt>
      <trkpt lat="47.63657" lon="6.03461">
        <ele>216.66</ele>
        <time>2022-01-09T09:48:41Z</time>
      </trkpt>
      <trkpt lat="47.63642" lon="6.03437">
        <ele>216.43</ele>
        <time>2022-01-09T09:48:45Z</time>
      </trkpt>
      <trkpt lat="47.63627" lon="6.03412">
        <ele>216.85</ele>
        <time>2022-01-09T09:48:49Z</time>
      </trkpt>
      <trkpt lat="47.63612" lon="6.03388">
        <ele>215.65</ele>
        <time>2022-01-09T09:48:53Z</time>
      </trkpt>
      <trkpt lat="47.63598" lon="6.03365">
        <ele>214.69</ele>
        <time>2022-01-09T09:48:57Z</time>
      </trkpt>
      <trkpt lat="47.63586" lon="6.03342">
        <ele>214.17</ele>
        <time>2022-01-09T09:49:01Z</time>
      </trkpt>
      <trkpt lat="47.63573" lon="6.03318">
        <ele>214.84</ele>
        <time>2022-01-09T09:49:06Z</time>
      </trkpt>
      <trkpt lat="47.63563" lon="6.03296">
        <ele>215.19</ele>
        <time>2022-01-09T09:49:11Z</time>
      </trkpt>
      <trkpt lat="47.63548" lon="6.0327">
        <ele>215.37</ele>
        <time>2022-01-09T09:49:16Z</time>
      </trkpt>
      <trkpt lat="47.63537" lon="6.03249">
        <ele>215.87</ele>
        <time>2022-01-09T09:49:20Z</time>
      </trkpt>
      <trkpt lat="47.63525" lon="6.03227">
        <ele>216.81</ele>
        <time>2022-01-09T09:49:24Z</time>
      </trkpt>
      <trkpt lat="47.63515" lon="6.032">
        <ele>217.99</ele>
        <time>2022-01-09T09:49:29Z</time>
      </trkpt>
      <trkpt lat="47.63527" lon="6.03179">
        <ele>217.82</ele>
        <time>2022-01-09T09:49:33Z</time>
      </trkpt>
      <trkpt lat="47.63545" lon="6.0317">
        <ele>216.95</ele>
        <time>2022-01-09T09:49:37Z</time>
      </trkpt>
      <trkpt lat="47.63564" lon="6.03156">
        <ele>215.75</ele>
        <time>2022-01-09T09:49:41Z</time>
      </trkpt>
      <trkpt lat="47.63583" lon="6.03142">
        <ele>215.46</ele>
        <time>2022-01-09T09:49:45Z</time>
      </trkpt>
      <trkpt lat="47.63602" lon="6.03126">
        <ele>215.7</ele>
        <time>2022-01-09T09:49:49Z</time>
      </trkpt>
      <trkpt lat="47.63618" lon="6.03109">
        <ele>215.31</ele>
        <time>2022-01-09T09:49:53Z</time>
      </trkpt>
      <trkpt lat="47.63636" lon="6.03094">
        <ele>215.35</ele>
        <time>2022-01-09T09:49:57Z</time>
      </trkpt>
      <trkpt lat="47.63653" lon="6.03078">
        <ele>215.21</ele>
        <time>2022-01-09T09:50:01Z</time>
      </trkpt>
      <trkpt lat="47.6367" lon="6.03064">
        <ele>214.94</ele>
        <time>2022-01-09T09:50:05Z</time>
      </trkpt>
      <trkpt lat="47.63686" lon="6.0305">
        <ele>214.38</ele>
        <time>2022-01-09T09:50:09Z</time>
      </trkpt>
      <trkpt lat="47.63704" lon="6.03038">
        <ele>214.43</ele>
        <time>2022-01-09T09:50:13Z</time>
      </trkpt>
      <trkpt lat="47.63722" lon="6.03025">
        <ele>214.81</ele>
        <time>2022-01-09T09:50:17Z</time>
      </trkpt>
      <trkpt lat="47.6374" lon="6.03009">
        <ele>215.5</ele>
        <time>2022-01-09T09:50:21Z</time>
      </trkpt>
      <trkpt lat="47.63759" lon="6.02994">
        <ele>215.28</ele>
        <time>2022-01-09T09:50:25Z</time>
      </trkpt>
      <trkpt lat="47.6378" lon="6.02981">
        <ele>214.32</ele>
        <time>2022-01-09T09:50:29Z</time>
      </trkpt>
      <trkpt lat="47.63799" lon="6.02965">
        <ele>213.38</ele>
        <time>2022-01-09T09:50:33Z</time>
      </trkpt>
      <trkpt lat="47.63818" lon="6.0295">
        <ele>213.26</ele>
        <time>2022-01-09T09:50:37Z</time>
      </trkpt>
      <trkpt lat="47.63838" lon="6.02936">
        <ele>212.64</ele>
        <time>2022-01-09T09:50:41Z</time>
      </trkpt>
      <trkpt lat="47.63856" lon="6.02918">
        <ele>212.04</ele>
        <time>2022-01-09T09:50:45Z</time>
      </trkpt>
      <trkpt lat="47.63875" lon="6.02903">
        <ele>211.21</ele>
        <time>2022-01-09T09:50:50Z</time>
      </trkpt>
      <trkpt lat="47.63894" lon="6.02891">
        <ele>211.34</ele>
        <time>2022-01-09T09:50:54Z</time>
      </trkpt>
      <trkpt lat="47.63916" lon="6.02881">
        <ele>213.5</ele>
        <time>2022-01-09T09:50:59Z</time>
      </trkpt>
      <trkpt lat="47.63936" lon="6.02871">
        <ele>215.07</ele>
        <time>2022-01-09T09:51:03Z</time>
      </trkpt>
      <trkpt lat="47.63959" lon="6.02862">
        <ele>214.88</ele>
        <time>2022-01-09T09:51:07Z</time>
      </trkpt>
      <trkpt lat="47.63975" lon="6.0285">
        <ele>215.44</ele>
        <time>2022-01-09T09:51:10Z</time>
      </trkpt>
      <trkpt lat="47.63996" lon="6.02839">
        <ele>215.87</ele>
        <time>2022-01-09T09:51:14Z</time>
      </trkpt>
      <trkpt lat="47.64014" lon="6.02829">
        <ele>215.8</ele>
        <time>2022-01-09T09:51:18Z</time>
      </trkpt>
      <trkpt lat="47.64035" lon="6.02821">
        <ele>216.54</ele>
        <time>2022-01-09T09:51:23Z</time>
      </trkpt>
      <trkpt lat="47.64056" lon="6.02814">
        <ele>217.24</ele>
        <time>2022-01-09T09:51:27Z</time>
      </trkpt>
      <trkpt lat="47.64076" lon="6.02804">
        <ele>218.14</ele>
        <time>2022-01-09T09:51:31Z</time>
      </trkpt>
      <trkpt lat="47.64094" lon="6.02796">
        <ele>219.54</ele>
        <time>2022-01-09T09:51:35Z</time>
      </trkpt>
      <trkpt lat="47.64115" lon="6.02784">
        <ele>221.02</ele>
        <time>2022-01-09T09:51:40Z</time>
      </trkpt>
      <trkpt lat="47.64134" lon="6.02778">
        <ele>219.74</ele>
        <time>2022-01-09T09:51:44Z</time>
      </trkpt>
      <trkpt lat="47.64153" lon="6.02775">
        <ele>218.58</ele>
        <time>2022-01-09T09:51:48Z</time>
      </trkpt>
      <trkpt lat="47.64172" lon="6.02774">
        <ele>218.81</ele>
        <time>2022-01-09T09:51:52Z</time>
      </trkpt>
      <trkpt lat="47.64191" lon="6.02773">
        <ele>219.46</ele>
        <time>2022-01-09T09:51:57Z</time>
      </trkpt>
      <trkpt lat="47.6421" lon="6.02781">
        <ele>219.25</ele>
        <time>2022-01-09T09:52:01Z</time>
      </trkpt>
      <trkpt lat="47.6423" lon="6.02791">
        <ele>219.27</ele>
        <time>2022-01-09T09:52:05Z</time>
      </trkpt>
      <trkpt lat="47.6425" lon="6.02801">
        <ele>219.99</ele>
        <time>2022-01-09T09:52:09Z</time>
      </trkpt>
      <trkpt lat="47.64271" lon="6.0281">
        <ele>220.5</ele>
        <time>2022-01-09T09:52:13Z</time>
      </trkpt>
      <trkpt lat="47.64292" lon="6.0282">
        <ele>220.96</ele>
        <time>2022-01-09T09:52:17Z</time>
      </trkpt>
      <trkpt lat="47.64314" lon="6.02827">
        <ele>221.18</ele>
        <time>2022-01-09T09:52:21Z</time>
      </trkpt>
      <trkpt lat="47.64335" lon="6.0283">
        <ele>221.23</ele>
        <time>2022-01-09T09:52:25Z</time>
      </trkpt>
      <trkpt lat="47.64356" lon="6.02829">
        <ele>220.87</ele>
        <time>2022-01-09T09:52:29Z</time>
      </trkpt>
      <trkpt lat="47.64376" lon="6.02821">
        <ele>220.36</ele>
        <time>2022-01-09T09:52:33Z</time>
      </trkpt>
      <trkpt lat="47.64396" lon="6.02811">
        <ele>219.73</ele>
        <time>2022-01-09T09:52:37Z</time>
      </trkpt>
      <trkpt lat="47.64414" lon="6.02801">
        <ele>218.06</ele>
        <time>2022-01-09T09:52:41Z</time>
      </trkpt>
      <trkpt lat="47.64432" lon="6.02791">
        <ele>217.02</ele>
        <time>2022-01-09T09:52:45Z</time>
      </trkpt>
      <trkpt lat="47.64449" lon="6.0278">
        <ele>215.94</ele>
        <time>2022-01-09T09:52:49Z</time>
      </trkpt>
      <trkpt lat="47.64465" lon="6.02764">
        <ele>215.41</ele>
        <time>2022-01-09T09:52:54Z</time>
      </trkpt>
      <trkpt lat="47.6448" lon="6.02749">
        <ele>215.37</ele>
        <time>2022-01-09T09:52:59Z</time>
      </trkpt>
      <trkpt lat="47.645" lon="6.0274">
        <ele>215.01</ele>
        <time>2022-01-09T09:53:04Z</time>
      </trkpt>
      <trkpt lat="47.64515" lon="6.02722">
        <ele>214.9</ele>
        <time>2022-01-09T09:53:10Z</time>
      </trkpt>
      <trkpt lat="47.64529" lon="6.02701">
        <ele>215</ele>
        <time>2022-01-09T09:53:16Z</time>
      </trkpt>
      <trkpt lat="47.64541" lon="6.02676">
        <ele>215.58</ele>
        <time>2022-01-09T09:53:22Z</time>
      </trkpt>
      <trkpt lat="47.64552" lon="6.02648">
        <ele>216.77</ele>
        <time>2022-01-09T09:53:28Z</time>
      </trkpt>
      <trkpt lat="47.64561" lon="6.02622">
        <ele>218.23</ele>
        <time>2022-01-09T09:53:34Z</time>
      </trkpt>
      <trkpt lat="47.6457" lon="6.02595">
        <ele>218.51</ele>
        <time>2022-01-09T09:53:42Z</time>
      </trkpt>
      <trkpt lat="47.64579" lon="6.02571">
        <ele>220.96</ele>
        <time>2022-01-09T09:53:50Z</time>
      </trkpt>
      <trkpt lat="47.64591" lon="6.0255">
        <ele>221.97</ele>
        <time>2022-01-09T09:53:58Z</time>
      </trkpt>
      <trkpt lat="47.64604" lon="6.02527">
        <ele>222.13</ele>
        <time>2022-01-09T09:54:06Z</time>
      </trkpt>
      <trkpt lat="47.64618" lon="6.02506">
        <ele>221.31</ele>
        <time>2022-01-09T09:54:14Z</time>
      </trkpt>
      <trkpt lat="47.64632" lon="6.02489">
        <ele>221.74</ele>
        <time>2022-01-09T09:54:21Z</time>
      </trkpt>
      <trkpt lat="47.64646" lon="6.0247">
        <ele>222.98</ele>
        <time>2022-01-09T09:54:28Z</time>
      </trkpt>
      <trkpt lat="47.6466" lon="6.02451">
        <ele>224.36</ele>
        <time>2022-01-09T09:54:35Z</time>
      </trkpt>
      <trkpt lat="47.64674" lon="6.02434">
        <ele>225.74</ele>
        <time>2022-01-09T09:54:41Z</time>
      </trkpt>
      <trkpt lat="47.64663" lon="6.0241">
        <ele>226.29</ele>
        <time>2022-01-09T09:54:48Z</time>
      </trkpt>
      <trkpt lat="47.64643" lon="6.02403">
        <ele>226.8</ele>
        <time>2022-01-09T09:54:54Z</time>
      </trkpt>
      <trkpt lat="47.64625" lon="6.02396">
        <ele>228.37</ele>
        <time>2022-01-09T09:55:01Z</time>
      </trkpt>
      <trkpt lat="47.64605" lon="6.02387">
        <ele>230.25</ele>
        <time>2022-01-09T09:55:08Z</time>
      </trkpt>
      <trkpt lat="47.64587" lon="6.02374">
        <ele>231.68</ele>
        <time>2022-01-09T09:55:15Z</time>
      </trkpt>
      <trkpt lat="47.64569" lon="6.02363">
        <ele>232.6</ele>
        <time>2022-01-09T09:55:20Z</time>
      </trkpt>
      <trkpt lat="47.64552" lon="6.02348">
        <ele>234.12</ele>
        <time>2022-01-09T09:55:27Z</time>
      </trkpt>
      <trkpt lat="47.64536" lon="6.02332">
        <ele>235.05</ele>
        <time>2022-01-09T09:55:36Z</time>
      </trkpt>
      <trkpt lat="47.64519" lon="6.02321">
        <ele>236.48</ele>
        <time>2022-01-09T09:55:47Z</time>
      </trkpt>
      <trkpt lat="47.64504" lon="6.02304">
        <ele>238.65</ele>
        <time>2022-01-09T09:55:53Z</time>
      </trkpt>
      <trkpt lat="47.64488" lon="6.02289">
        <ele>240.51</ele>
        <time>2022-01-09T09:56:00Z</time>
      </trkpt>
      <trkpt lat="47.64476" lon="6.02265">
        <ele>244.28</ele>
        <time>2022-01-09T09:56:10Z</time>
      </trkpt>
      <trkpt lat="47.64463" lon="6.02247">
        <ele>245.61</ele>
        <time>2022-01-09T09:56:18Z</time>
      </trkpt>
      <trkpt lat="47.6445" lon="6.02226">
        <ele>245.93</ele>
        <time>2022-01-09T09:56:25Z</time>
      </trkpt>
      <trkpt lat="47.64438" lon="6.02204">
        <ele>245.11</ele>
        <time>2022-01-09T09:56:32Z</time>
      </trkpt>
      <trkpt lat="47.64426" lon="6.02181">
        <ele>245.59</ele>
        <time>2022-01-09T09:56:39Z</time>
      </trkpt>
      <trkpt lat="47.64412" lon="6.02163">
        <ele>246.32</ele>
        <time>2022-01-09T09:56:46Z</time>
      </trkpt>
      <trkpt lat="47.64396" lon="6.02144">
        <ele>247.02</ele>
        <time>2022-01-09T09:56:53Z</time>
      </trkpt>
      <trkpt lat="47.64379" lon="6.02129">
        <ele>247.46</ele>
        <time>2022-01-09T09:56:59Z</time>
      </trkpt>
      <trkpt lat="47.64363" lon="6.02114">
        <ele>247.6</ele>
        <time>2022-01-09T09:57:05Z</time>
      </trkpt>
      <trkpt lat="47.64346" lon="6.02101">
        <ele>247.43</ele>
        <time>2022-01-09T09:57:11Z</time>
      </trkpt>
      <trkpt lat="47.64329" lon="6.0209">
        <ele>247.32</ele>
        <time>2022-01-09T09:57:17Z</time>
      </trkpt>
      <trkpt lat="47.64311" lon="6.02077">
        <ele>246.97</ele>
        <time>2022-01-09T09:57:24Z</time>
      </trkpt>
      <trkpt lat="47.64291" lon="6.02063">
        <ele>248.3</ele>
        <time>2022-01-09T09:57:30Z</time>
      </trkpt>
      <trkpt lat="47.64272" lon="6.02056">
        <ele>249.03</ele>
        <time>2022-01-09T09:57:39Z</time>
      </trkpt>
      <trkpt lat="47.64255" lon="6.02042">
        <ele>250.4</ele>
        <time>2022-01-09T09:57:48Z</time>
      </trkpt>
      <trkpt lat="47.64236" lon="6.02031">
        <ele>251.53</ele>
        <time>2022-01-09T09:57:55Z</time>
      </trkpt>
      <trkpt lat="47.64219" lon="6.0202">
        <ele>251.23</ele>
        <time>2022-01-09T09:58:02Z</time>
      </trkpt>
      <trkpt lat="47.64202" lon="6.02005">
        <ele>253.13</ele>
        <time>2022-01-09T09:58:11Z</time>
      </trkpt>
      <trkpt lat="47.64185" lon="6.01998">
        <ele>253.3</ele>
        <time>2022-01-09T09:58:17Z</time>
      </trkpt>
      <trkpt lat="47.64168" lon="6.01985">
        <ele>255.23</ele>
        <time>2022-01-09T09:58:23Z</time>
      </trkpt>
      <trkpt lat="47.64149" lon="6.01976">
        <ele>255.78</ele>
        <time>2022-01-09T09:58:30Z</time>
      </trkpt>
      <trkpt lat="47.64131" lon="6.01963">
        <ele>256.09</ele>
        <time>2022-01-09T09:58:38Z</time>
      </trkpt>
      <trkpt lat="47.64113" lon="6.01952">
        <ele>256.35</ele>
        <time>2022-01-09T09:58:44Z</time>
      </trkpt>
      <trkpt lat="47.64099" lon="6.01936">
        <ele>257.21</ele>
        <time>2022-01-09T09:58:51Z</time>
      </trkpt>
      <trkpt lat="47.64082" lon="6.01922">
        <ele>256.19</ele>
        <time>2022-01-09T09:58:58Z</time>
      </trkpt>
      <trkpt lat="47.64064" lon="6.01914">
        <ele>257.98</ele>
        <time>2022-01-09T09:59:04Z</time>
      </trkpt>
      <trkpt lat="47.64046" lon="6.01907">
        <ele>258.07</ele>
        <time>2022-01-09T09:59:10Z</time>
      </trkpt>
      <trkpt lat="47.64026" lon="6.01906">
        <ele>259.07</ele>
        <time>2022-01-09T09:59:16Z</time>
      </trkpt>
      <trkpt lat="47.64008" lon="6.01905">
        <ele>260.3</ele>
        <time>2022-01-09T09:59:22Z</time>
      </trkpt>
      <trkpt lat="47.6399" lon="6.01907">
        <ele>262.56</ele>
        <time>2022-01-09T09:59:29Z</time>
      </trkpt>
      <trkpt lat="47.63971" lon="6.01913">
        <ele>263.88</ele>
        <time>2022-01-09T09:59:37Z</time>
      </trkpt>
      <trkpt lat="47.63953" lon="6.01918">
        <ele>263.96</ele>
        <time>2022-01-09T09:59:45Z</time>
      </trkpt>
      <trkpt lat="47.63934" lon="6.01911">
        <ele>264.39</ele>
        <time>2022-01-09T09:59:52Z</time>
      </trkpt>
      <trkpt lat="47.63914" lon="6.01906">
        <ele>265.48</ele>
        <time>2022-01-09T10:00:00Z</time>
      </trkpt>
      <trkpt lat="47.63897" lon="6.01899">
        <ele>266.88</ele>
        <time>2022-01-09T10:00:07Z</time>
      </trkpt>
      <trkpt lat="47.6388" lon="6.01883">
        <ele>268.61</ele>
        <time>2022-01-09T10:00:15Z</time>
      </trkpt>
      <trkpt lat="47.63863" lon="6.01868">
        <ele>270.38</ele>
        <time>2022-01-09T10:00:22Z</time>
      </trkpt>
      <trkpt lat="47.63848" lon="6.01848">
        <ele>271.69</ele>
        <time>2022-01-09T10:00:30Z</time>
      </trkpt>
      <trkpt lat="47.63836" lon="6.01824">
        <ele>272.67</ele>
        <time>2022-01-09T10:00:37Z</time>
      </trkpt>
      <trkpt lat="47.63819" lon="6.01808">
        <ele>272.89</ele>
        <time>2022-01-09T10:00:42Z</time>
      </trkpt>
      <trkpt lat="47.63801" lon="6.01794">
        <ele>273.18</ele>
        <time>2022-01-09T10:00:48Z</time>
      </trkpt>
      <trkpt lat="47.63786" lon="6.01776">
        <ele>274.25</ele>
        <time>2022-01-09T10:00:53Z</time>
      </trkpt>
      <trkpt lat="47.63769" lon="6.01757">
        <ele>275.17</ele>
        <time>2022-01-09T10:00:59Z</time>
      </trkpt>
      <trkpt lat="47.63755" lon="6.01737">
        <ele>275.55</ele>
        <time>2022-01-09T10:01:04Z</time>
      </trkpt>
      <trkpt lat="47.63738" lon="6.01721">
        <ele>275.27</ele>
        <time>2022-01-09T10:01:09Z</time>
      </trkpt>
      <trkpt lat="47.63722" lon="6.01709">
        <ele>275.13</ele>
        <time>2022-01-09T10:01:13Z</time>
      </trkpt>
      <trkpt lat="47.63707" lon="6.01692">
        <ele>275.09</ele>
        <time>2022-01-09T10:01:17Z</time>
      </trkpt>
      <trkpt lat="47.63692" lon="6.01675">
        <ele>274.43</ele>
        <time>2022-01-09T10:01:21Z</time>
      </trkpt>
      <trkpt lat="47.63675" lon="6.01655">
        <ele>274.35</ele>
        <time>2022-01-09T10:01:25Z</time>
      </trkpt>
      <trkpt lat="47.63659" lon="6.01629">
        <ele>273.94</ele>
        <time>2022-01-09T10:01:29Z</time>
      </trkpt>
      <trkpt lat="47.63646" lon="6.01608">
        <ele>273.66</ele>
        <time>2022-01-09T10:01:32Z</time>
      </trkpt>
      <trkpt lat="47.63634" lon="6.01585">
        <ele>273.53</ele>
        <time>2022-01-09T10:01:35Z</time>
      </trkpt>
      <trkpt lat="47.63621" lon="6.01564">
        <ele>273.37</ele>
        <time>2022-01-09T10:01:38Z</time>
      </trkpt>
      <trkpt lat="47.63607" lon="6.0154">
        <ele>272.97</ele>
        <time>2022-01-09T10:01:41Z</time>
      </trkpt>
      <trkpt lat="47.63592" lon="6.01516">
        <ele>271.7</ele>
        <time>2022-01-09T10:01:44Z</time>
      </trkpt>
      <trkpt lat="47.63576" lon="6.01491">
        <ele>270.6</ele>
        <time>2022-01-09T10:01:47Z</time>
      </trkpt>
      <trkpt lat="47.63561" lon="6.01465">
        <ele>268.79</ele>
        <time>2022-01-09T10:01:50Z</time>
      </trkpt>
      <trkpt lat="47.63544" lon="6.01442">
        <ele>267.21</ele>
        <time>2022-01-09T10:01:53Z</time>
      </trkpt>
      <trkpt lat="47.63528" lon="6.0142">
        <ele>266.08</ele>
        <time>2022-01-09T10:01:56Z</time>
      </trkpt>
      <trkpt lat="47.63514" lon="6.01393">
        <ele>264.97</ele>
        <time>2022-01-09T10:01:59Z</time>
      </trkpt>
      <trkpt lat="47.63501" lon="6.01369">
        <ele>263.97</ele>
        <time>2022-01-09T10:02:02Z</time>
      </trkpt>
      <trkpt lat="47.63489" lon="6.01344">
        <ele>262.99</ele>
        <time>2022-01-09T10:02:05Z</time>
      </trkpt>
      <trkpt lat="47.63478" lon="6.01318">
        <ele>262.02</ele>
        <time>2022-01-09T10:02:08Z</time>
      </trkpt>
      <trkpt lat="47.63468" lon="6.01287">
        <ele>260.56</ele>
        <time>2022-01-09T10:02:11Z</time>
      </trkpt>
      <trkpt lat="47.63455" lon="6.01262">
        <ele>259.54</ele>
        <time>2022-01-09T10:02:14Z</time>
      </trkpt>
      <trkpt lat="47.63442" lon="6.01237">
        <ele>258.99</ele>
        <time>2022-01-09T10:02:17Z</time>
      </trkpt>
      <trkpt lat="47.63427" lon="6.01218">
        <ele>259.52</ele>
        <time>2022-01-09T10:02:20Z</time>
      </trkpt>
      <trkpt lat="47.63412" lon="6.0119">
        <ele>258.95</ele>
        <time>2022-01-09T10:02:23Z</time>
      </trkpt>
      <trkpt lat="47.63397" lon="6.01165">
        <ele>257.7</ele>
        <time>2022-01-09T10:02:26Z</time>
      </trkpt>
      <trkpt lat="47.63388" lon="6.01138">
        <ele>256.43</ele>
        <time>2022-01-09T10:02:29Z</time>
      </trkpt>
      <trkpt lat="47.63383" lon="6.01107">
        <ele>255.55</ele>
        <time>2022-01-09T10:02:32Z</time>
      </trkpt>
      <trkpt lat="47.63383" lon="6.01076">
        <ele>255.14</ele>
        <time>2022-01-09T10:02:35Z</time>
      </trkpt>
      <trkpt lat="47.63382" lon="6.01046">
        <ele>255.9</ele>
        <time>2022-01-09T10:02:38Z</time>
      </trkpt>
      <trkpt lat="47.63382" lon="6.01013">
        <ele>257.03</ele>
        <time>2022-01-09T10:02:41Z</time>
      </trkpt>
      <trkpt lat="47.63378" lon="6.00979">
        <ele>258.31</ele>
        <time>2022-01-09T10:02:44Z</time>
      </trkpt>
      <trkpt lat="47.63375" lon="6.00943">
        <ele>258.73</ele>
        <time>2022-01-09T10:02:47Z</time>
      </trkpt>
      <trkpt lat="47.63366" lon="6.00915">
        <ele>258.22</ele>
        <time>2022-01-09T10:02:50Z</time>
      </trkpt>
      <trkpt lat="47.63358" lon="6.00884">
        <ele>257.92</ele>
        <time>2022-01-09T10:02:53Z</time>
      </trkpt>
      <trkpt lat="47.63352" lon="6.00856">
        <ele>258.15</ele>
        <time>2022-01-09T10:02:56Z</time>
      </trkpt>
      <trkpt lat="47.63345" lon="6.00829">
        <ele>258.28</ele>
        <time>2022-01-09T10:02:59Z</time>
      </trkpt>
      <trkpt lat="47.63345" lon="6.00799">
        <ele>258.22</ele>
        <time>2022-01-09T10:03:02Z</time>
      </trkpt>
      <trkpt lat="47.63349" lon="6.00769">
        <ele>258.7</ele>
        <time>2022-01-09T10:03:07Z</time>
      </trkpt>
      <trkpt lat="47.63353" lon="6.0074">
        <ele>260.46</ele>
        <time>2022-01-09T10:03:12Z</time>
      </trkpt>
      <trkpt lat="47.63364" lon="6.00715">
        <ele>258.63</ele>
        <time>2022-01-09T10:03:16Z</time>
      </trkpt>
      <trkpt lat="47.63374" lon="6.0069">
        <ele>255.87</ele>
        <time>2022-01-09T10:03:20Z</time>
      </trkpt>
      <trkpt lat="47.63381" lon="6.00665">
        <ele>252.54</ele>
        <time>2022-01-09T10:03:24Z</time>
      </trkpt>
      <trkpt lat="47.63391" lon="6.00641">
        <ele>251.33</ele>
        <time>2022-01-09T10:03:28Z</time>
      </trkpt>
      <trkpt lat="47.634" lon="6.00617">
        <ele>251.01</ele>
        <time>2022-01-09T10:03:32Z</time>
      </trkpt>
      <trkpt lat="47.63412" lon="6.00595">
        <ele>251.71</ele>
        <time>2022-01-09T10:03:36Z</time>
      </trkpt>
      <trkpt lat="47.63422" lon="6.0057">
        <ele>252.84</ele>
        <time>2022-01-09T10:03:40Z</time>
      </trkpt>
      <trkpt lat="47.63435" lon="6.00546">
        <ele>251.88</ele>
        <time>2022-01-09T10:03:44Z</time>
      </trkpt>
      <trkpt lat="47.63445" lon="6.00518">
        <ele>251.8</ele>
        <time>2022-01-09T10:03:48Z</time>
      </trkpt>
      <trkpt lat="47.63455" lon="6.00491">
        <ele>251.8</ele>
        <time>2022-01-09T10:03:52Z</time>
      </trkpt>
      <trkpt lat="47.63466" lon="6.00463">
        <ele>250.58</ele>
        <time>2022-01-09T10:03:56Z</time>
      </trkpt>
      <trkpt lat="47.63476" lon="6.00435">
        <ele>249.98</ele>
        <time>2022-01-09T10:04:00Z</time>
      </trkpt>
      <trkpt lat="47.63483" lon="6.00405">
        <ele>249.87</ele>
        <time>2022-01-09T10:04:04Z</time>
      </trkpt>
      <trkpt lat="47.63487" lon="6.00376">
        <ele>249.8</ele>
        <time>2022-01-09T10:04:08Z</time>
      </trkpt>
      <trkpt lat="47.63489" lon="6.00344">
        <ele>250.27</ele>
        <time>2022-01-09T10:04:12Z</time>
      </trkpt>
      <trkpt lat="47.6349" lon="6.00313">
        <ele>251.87</ele>
        <time>2022-01-09T10:04:16Z</time>
      </trkpt>
      <trkpt lat="47.63491" lon="6.00282">
        <ele>252.31</ele>
        <time>2022-01-09T10:04:20Z</time>
      </trkpt>
      <trkpt lat="47.63496" lon="6.00249">
        <ele>252.97</ele>
        <time>2022-01-09T10:04:24Z</time>
      </trkpt>
      <trkpt lat="47.63505" lon="6.00226">
        <ele>253.47</ele>
        <time>2022-01-09T10:04:27Z</time>
      </trkpt>
      <trkpt lat="47.63516" lon="6.00196">
        <ele>252.53</ele>
        <time>2022-01-09T10:04:31Z</time>
      </trkpt>
      <trkpt lat="47.63523" lon="6.00165">
        <ele>251.06</ele>
        <time>2022-01-09T10:04:35Z</time>
      </trkpt>
      <trkpt lat="47.6352" lon="6.00137">
        <ele>250.28</ele>
        <time>2022-01-09T10:04:40Z</time>
      </trkpt>
      <trkpt lat="47.63503" lon="6.00125">
        <ele>250.42</ele>
        <time>2022-01-09T10:04:46Z</time>
      </trkpt>
      <trkpt lat="47.63487" lon="6.00106">
        <ele>248.89</ele>
        <time>2022-01-09T10:04:53Z</time>
      </trkpt>
      <trkpt lat="47.63475" lon="6.0008">
        <ele>247.57</ele>
        <time>2022-01-09T10:04:59Z</time>
      </trkpt>
      <trkpt lat="47.63459" lon="6.00063">
        <ele>246.98</ele>
        <time>2022-01-09T10:05:06Z</time>
      </trkpt>
      <trkpt lat="47.63448" lon="6.00039">
        <ele>245.5</ele>
        <time>2022-01-09T10:05:12Z</time>
      </trkpt>
      <trkpt lat="47.63436" lon="6.00014">
        <ele>246.44</ele>
        <time>2022-01-09T10:05:18Z</time>
      </trkpt>
      <trkpt lat="47.63431" lon="5.99984">
        <ele>247.59</ele>
        <time>2022-01-09T10:05:24Z</time>
      </trkpt>
      <trkpt lat="47.63426" lon="5.99955">
        <ele>248.69</ele>
        <time>2022-01-09T10:05:30Z</time>
      </trkpt>
      <trkpt lat="47.6342" lon="5.99925">
        <ele>250.54</ele>
        <time>2022-01-09T10:05:36Z</time>
      </trkpt>
      <trkpt lat="47.63419" lon="5.99897">
        <ele>252.3</ele>
        <time>2022-01-09T10:05:42Z</time>
      </trkpt>
      <trkpt lat="47.63415" lon="5.99865">
        <ele>254.26</ele>
        <time>2022-01-09T10:05:49Z</time>
      </trkpt>
      <trkpt lat="47.63418" lon="5.99838">
        <ele>254.92</ele>
        <time>2022-01-09T10:05:56Z</time>
      </trkpt>
      <trkpt lat="47.63415" lon="5.99811">
        <ele>258.71</ele>
        <time>2022-01-09T10:06:04Z</time>
      </trkpt>
      <trkpt lat="47.63408" lon="5.99786">
        <ele>262.27</ele>
        <time>2022-01-09T10:06:10Z</time>
      </trkpt>
      <trkpt lat="47.63404" lon="5.99756">
        <ele>263.9</ele>
        <time>2022-01-09T10:06:17Z</time>
      </trkpt>
      <trkpt lat="47.63403" lon="5.99728">
        <ele>265.06</ele>
        <time>2022-01-09T10:06:23Z</time>
      </trkpt>
      <trkpt lat="47.634" lon="5.99698">
        <ele>264.95</ele>
        <time>2022-01-09T10:06:29Z</time>
      </trkpt>
      <trkpt lat="47.63391" lon="5.99674">
        <ele>265.46</ele>
        <time>2022-01-09T10:06:35Z</time>
      </trkpt>
      <trkpt lat="47.63386" lon="5.99645">
        <ele>267.02</ele>
        <time>2022-01-09T10:06:41Z</time>
      </trkpt>
      <trkpt lat="47.63383" lon="5.99615">
        <ele>267.77</ele>
        <time>2022-01-09T10:06:46Z</time>
      </trkpt>
      <trkpt lat="47.63374" lon="5.99587">
        <ele>268.5</ele>
        <time>2022-01-09T10:06:52Z</time>
      </trkpt>
      <trkpt lat="47.63371" lon="5.99559">
        <ele>269.55</ele>
        <time>2022-01-09T10:06:58Z</time>
      </trkpt>
      <trkpt lat="47.63383" lon="5.99524">
        <ele>269.43</ele>
        <time>2022-01-09T10:07:02Z</time>
      </trkpt>
      <trkpt lat="47.63396" lon="5.99503">
        <ele>266.86</ele>
        <time>2022-01-09T10:07:06Z</time>
      </trkpt>
      <trkpt lat="47.63412" lon="5.99483">
        <ele>263.92</ele>
        <time>2022-01-09T10:07:12Z</time>
      </trkpt>
      <trkpt lat="47.6343" lon="5.99473">
        <ele>263.27</ele>
        <time>2022-01-09T10:07:17Z</time>
      </trkpt>
      <trkpt lat="47.63444" lon="5.99454">
        <ele>262.08</ele>
        <time>2022-01-09T10:07:22Z</time>
      </trkpt>
      <trkpt lat="47.63459" lon="5.99432">
        <ele>260.83</ele>
        <time>2022-01-09T10:07:28Z</time>
      </trkpt>
      <trkpt lat="47.63477" lon="5.99419">
        <ele>260.6</ele>
        <time>2022-01-09T10:07:33Z</time>
      </trkpt>
      <trkpt lat="47.63492" lon="5.99402">
        <ele>260.36</ele>
        <time>2022-01-09T10:07:38Z</time>
      </trkpt>
      <trkpt lat="47.63511" lon="5.99392">
        <ele>259.11</ele>
        <time>2022-01-09T10:07:43Z</time>
      </trkpt>
      <trkpt lat="47.63529" lon="5.99382">
        <ele>258.89</ele>
        <time>2022-01-09T10:07:47Z</time>
      </trkpt>
      <trkpt lat="47.63549" lon="5.99369">
        <ele>258.13</ele>
        <time>2022-01-09T10:07:51Z</time>
      </trkpt>
      <trkpt lat="47.63565" lon="5.99356">
        <ele>257.21</ele>
        <time>2022-01-09T10:07:54Z</time>
      </trkpt>
      <trkpt lat="47.63579" lon="5.99339">
        <ele>256.37</ele>
        <time>2022-01-09T10:07:57Z</time>
      </trkpt>
      <trkpt lat="47.63595" lon="5.99312">
        <ele>255.73</ele>
        <time>2022-01-09T10:08:01Z</time>
      </trkpt>
      <trkpt lat="47.63609" lon="5.99286">
        <ele>255.74</ele>
        <time>2022-01-09T10:08:05Z</time>
      </trkpt>
      <trkpt lat="47.63624" lon="5.9926">
        <ele>254.83</ele>
        <time>2022-01-09T10:08:09Z</time>
      </trkpt>
      <trkpt lat="47.63639" lon="5.99237">
        <ele>253.46</ele>
        <time>2022-01-09T10:08:13Z</time>
      </trkpt>
      <trkpt lat="47.63652" lon="5.99215">
        <ele>252.51</ele>
        <time>2022-01-09T10:08:17Z</time>
      </trkpt>
      <trkpt lat="47.63667" lon="5.99198">
        <ele>251.75</ele>
        <time>2022-01-09T10:08:21Z</time>
      </trkpt>
      <trkpt lat="47.63684" lon="5.99178">
        <ele>250.44</ele>
        <time>2022-01-09T10:08:26Z</time>
      </trkpt>
      <trkpt lat="47.63699" lon="5.99158">
        <ele>249.89</ele>
        <time>2022-01-09T10:08:31Z</time>
      </trkpt>
      <trkpt lat="47.63713" lon="5.99138">
        <ele>249.47</ele>
        <time>2022-01-09T10:08:36Z</time>
      </trkpt>
      <trkpt lat="47.63727" lon="5.99118">
        <ele>249.73</ele>
        <time>2022-01-09T10:08:41Z</time>
      </trkpt>
      <trkpt lat="47.6374" lon="5.99099">
        <ele>249.58</ele>
        <time>2022-01-09T10:08:46Z</time>
      </trkpt>
      <trkpt lat="47.63753" lon="5.99079">
        <ele>248.82</ele>
        <time>2022-01-09T10:08:51Z</time>
      </trkpt>
      <trkpt lat="47.63764" lon="5.99056">
        <ele>248.91</ele>
        <time>2022-01-09T10:08:56Z</time>
      </trkpt>
      <trkpt lat="47.63775" lon="5.99033">
        <ele>249.32</ele>
        <time>2022-01-09T10:09:01Z</time>
      </trkpt>
      <trkpt lat="47.63786" lon="5.99009">
        <ele>249.73</ele>
        <time>2022-01-09T10:09:06Z</time>
      </trkpt>
      <trkpt lat="47.63797" lon="5.98987">
        <ele>249.96</ele>
        <time>2022-01-09T10:09:11Z</time>
      </trkpt>
      <trkpt lat="47.63805" lon="5.98963">
        <ele>250.36</ele>
        <time>2022-01-09T10:09:16Z</time>
      </trkpt>
      <trkpt lat="47.63822" lon="5.98944">
        <ele>251.32</ele>
        <time>2022-01-09T10:09:22Z</time>
      </trkpt>
      <trkpt lat="47.63842" lon="5.98945">
        <ele>251.16</ele>
        <time>2022-01-09T10:09:28Z</time>
      </trkpt>
      <trkpt lat="47.63863" lon="5.98948">
        <ele>251.55</ele>
        <time>2022-01-09T10:09:34Z</time>
      </trkpt>
      <trkpt lat="47.63882" lon="5.98949">
        <ele>251.73</ele>
        <time>2022-01-09T10:09:41Z</time>
      </trkpt>
      <trkpt lat="47.63901" lon="5.98951">
        <ele>251.88</ele>
        <time>2022-01-09T10:09:47Z</time>
      </trkpt>
      <trkpt lat="47.63921" lon="5.98948">
        <ele>252.51</ele>
        <time>2022-01-09T10:09:54Z</time>
      </trkpt>
      <trkpt lat="47.6394" lon="5.98952">
        <ele>251.55</ele>
        <time>2022-01-09T10:10:02Z</time>
      </trkpt>
      <trkpt lat="47.6396" lon="5.98955">
        <ele>252.71</ele>
        <time>2022-01-09T10:10:10Z</time>
      </trkpt>
      <trkpt lat="47.6398" lon="5.98954">
        <ele>254.7</ele>
        <time>2022-01-09T10:10:19Z</time>
      </trkpt>
      <trkpt lat="47.64" lon="5.98953">
        <ele>255.56</ele>
        <time>2022-01-09T10:10:27Z</time>
      </trkpt>
      <trkpt lat="47.64019" lon="5.98954">
        <ele>256.14</ele>
        <time>2022-01-09T10:10:34Z</time>
      </trkpt>
      <trkpt lat="47.64037" lon="5.98958">
        <ele>255.6</ele>
        <time>2022-01-09T10:10:40Z</time>
      </trkpt>
      <trkpt lat="47.64055" lon="5.98963">
        <ele>255.15</ele>
        <time>2022-01-09T10:10:45Z</time>
      </trkpt>
      <trkpt lat="47.64073" lon="5.98965">
        <ele>254.79</ele>
        <time>2022-01-09T10:10:50Z</time>
      </trkpt>
      <trkpt lat="47.64095" lon="5.98967">
        <ele>254.85</ele>
        <time>2022-01-09T10:10:55Z</time>
      </trkpt>
      <trkpt lat="47.64113" lon="5.98969">
        <ele>254.87</ele>
        <time>2022-01-09T10:10:59Z</time>
      </trkpt>
      <trkpt lat="47.64134" lon="5.98972">
        <ele>254.65</ele>
        <time>2022-01-09T10:11:03Z</time>
      </trkpt>
      <trkpt lat="47.64152" lon="5.98963">
        <ele>253.27</ele>
        <time>2022-01-09T10:11:08Z</time>
      </trkpt>
      <trkpt lat="47.64156" lon="5.98935">
        <ele>254.36</ele>
        <time>2022-01-09T10:11:14Z</time>
      </trkpt>
      <trkpt lat="47.64168" lon="5.98914">
        <ele>254.06</ele>
        <time>2022-01-09T10:11:19Z</time>
      </trkpt>
      <trkpt lat="47.64186" lon="5.98912">
        <ele>253.96</ele>
        <time>2022-01-09T10:11:23Z</time>
      </trkpt>
      <trkpt lat="47.64207" lon="5.98917">
        <ele>253.54</ele>
        <time>2022-01-09T10:11:27Z</time>
      </trkpt>
      <trkpt lat="47.64226" lon="5.9892">
        <ele>253.31</ele>
        <time>2022-01-09T10:11:30Z</time>
      </trkpt>
      <trkpt lat="47.6425" lon="5.98926">
        <ele>251.45</ele>
        <time>2022-01-09T10:11:34Z</time>
      </trkpt>
      <trkpt lat="47.64268" lon="5.9893">
        <ele>250.26</ele>
        <time>2022-01-09T10:11:37Z</time>
      </trkpt>
      <trkpt lat="47.64289" lon="5.98932">
        <ele>249.14</ele>
        <time>2022-01-09T10:11:42Z</time>
      </trkpt>
      <trkpt lat="47.64296" lon="5.98901">
        <ele>248.27</ele>
        <time>2022-01-09T10:11:47Z</time>
      </trkpt>
      <trkpt lat="47.64296" lon="5.98873">
        <ele>247.8</ele>
        <time>2022-01-09T10:11:51Z</time>
      </trkpt>
      <trkpt lat="47.643" lon="5.98845">
        <ele>247.88</ele>
        <time>2022-01-09T10:11:54Z</time>
      </trkpt>
      <trkpt lat="47.64304" lon="5.98816">
        <ele>247.02</ele>
        <time>2022-01-09T10:11:58Z</time>
      </trkpt>
      <trkpt lat="47.64307" lon="5.98786">
        <ele>246.5</ele>
        <time>2022-01-09T10:12:02Z</time>
      </trkpt>
      <trkpt lat="47.64311" lon="5.98754">
        <ele>246.09</ele>
        <time>2022-01-09T10:12:06Z</time>
      </trkpt>
      <trkpt lat="47.64314" lon="5.98723">
        <ele>245.65</ele>
        <time>2022-01-09T10:12:10Z</time>
      </trkpt>
      <trkpt lat="47.64319" lon="5.9869">
        <ele>244.68</ele>
        <time>2022-01-09T10:12:14Z</time>
      </trkpt>
      <trkpt lat="47.64323" lon="5.98657">
        <ele>243.78</ele>
        <time>2022-01-09T10:12:18Z</time>
      </trkpt>
      <trkpt lat="47.64326" lon="5.98631">
        <ele>243.02</ele>
        <time>2022-01-09T10:12:21Z</time>
      </trkpt>
      <trkpt lat="47.6433" lon="5.98604">
        <ele>242.28</ele>
        <time>2022-01-09T10:12:24Z</time>
      </trkpt>
      <trkpt lat="47.64333" lon="5.98576">
        <ele>241.62</ele>
        <time>2022-01-09T10:12:27Z</time>
      </trkpt>
      <trkpt lat="47.64336" lon="5.9855">
        <ele>241.17</ele>
        <time>2022-01-09T10:12:30Z</time>
      </trkpt>
      <trkpt lat="47.6434" lon="5.98522">
        <ele>241.09</ele>
        <time>2022-01-09T10:12:33Z</time>
      </trkpt>
      <trkpt lat="47.64343" lon="5.98493">
        <ele>240.89</ele>
        <time>2022-01-09T10:12:36Z</time>
      </trkpt>
      <trkpt lat="47.64347" lon="5.98464">
        <ele>240.49</ele>
        <time>2022-01-09T10:12:39Z</time>
      </trkpt>
      <trkpt lat="47.64351" lon="5.98435">
        <ele>239.82</ele>
        <time>2022-01-09T10:12:42Z</time>
      </trkpt>
      <trkpt lat="47.64353" lon="5.98406">
        <ele>238.88</ele>
        <time>2022-01-09T10:12:45Z</time>
      </trkpt>
      <trkpt lat="47.64359" lon="5.98373">
        <ele>237.92</ele>
        <time>2022-01-09T10:12:48Z</time>
      </trkpt>
      <trkpt lat="47.64364" lon="5.98341">
        <ele>236.88</ele>
        <time>2022-01-09T10:12:51Z</time>
      </trkpt>
      <trkpt lat="47.64367" lon="5.98312">
        <ele>236.76</ele>
        <time>2022-01-09T10:12:54Z</time>
      </trkpt>
      <trkpt lat="47.6437" lon="5.98282">
        <ele>236.44</ele>
        <time>2022-01-09T10:12:57Z</time>
      </trkpt>
      <trkpt lat="47.64374" lon="5.98251">
        <ele>235.91</ele>
        <time>2022-01-09T10:13:00Z</time>
      </trkpt>
      <trkpt lat="47.64377" lon="5.9822">
        <ele>235.78</ele>
        <time>2022-01-09T10:13:03Z</time>
      </trkpt>
      <trkpt lat="47.6438" lon="5.9819">
        <ele>235.42</ele>
        <time>2022-01-09T10:13:06Z</time>
      </trkpt>
      <trkpt lat="47.64384" lon="5.98161">
        <ele>234.31</ele>
        <time>2022-01-09T10:13:09Z</time>
      </trkpt>
      <trkpt lat="47.64388" lon="5.98132">
        <ele>233.9</ele>
        <time>2022-01-09T10:13:12Z</time>
      </trkpt>
      <trkpt lat="47.64392" lon="5.98105">
        <ele>233.54</ele>
        <time>2022-01-09T10:13:15Z</time>
      </trkpt>
      <trkpt lat="47.64397" lon="5.98072">
        <ele>231.95</ele>
        <time>2022-01-09T10:13:19Z</time>
      </trkpt>
      <trkpt lat="47.64403" lon="5.98041">
        <ele>230.61</ele>
        <time>2022-01-09T10:13:23Z</time>
      </trkpt>
      <trkpt lat="47.6441" lon="5.98011">
        <ele>230.09</ele>
        <time>2022-01-09T10:13:27Z</time>
      </trkpt>
      <trkpt lat="47.64418" lon="5.97983">
        <ele>230.33</ele>
        <time>2022-01-09T10:13:31Z</time>
      </trkpt>
      <trkpt lat="47.64428" lon="5.97955">
        <ele>230.4</ele>
        <time>2022-01-09T10:13:35Z</time>
      </trkpt>
      <trkpt lat="47.64441" lon="5.9793">
        <ele>229.74</ele>
        <time>2022-01-09T10:13:39Z</time>
      </trkpt>
      <trkpt lat="47.64457" lon="5.97907">
        <ele>229.61</ele>
        <time>2022-01-09T10:13:43Z</time>
      </trkpt>
      <trkpt lat="47.64475" lon="5.97892">
        <ele>228.95</ele>
        <time>2022-01-09T10:13:47Z</time>
      </trkpt>
      <trkpt lat="47.6449" lon="5.97876">
        <ele>228.7</ele>
        <time>2022-01-09T10:13:50Z</time>
      </trkpt>
      <trkpt lat="47.64504" lon="5.97854">
        <ele>228.95</ele>
        <time>2022-01-09T10:13:54Z</time>
      </trkpt>
      <trkpt lat="47.64515" lon="5.97828">
        <ele>228.07</ele>
        <time>2022-01-09T10:13:58Z</time>
      </trkpt>
      <trkpt lat="47.6453" lon="5.97804">
        <ele>226.98</ele>
        <time>2022-01-09T10:14:02Z</time>
      </trkpt>
      <trkpt lat="47.64537" lon="5.97778">
        <ele>226.53</ele>
        <time>2022-01-09T10:14:05Z</time>
      </trkpt>
      <trkpt lat="47.64551" lon="5.97753">
        <ele>226.06</ele>
        <time>2022-01-09T10:14:09Z</time>
      </trkpt>
      <trkpt lat="47.6457" lon="5.97732">
        <ele>225.26</ele>
        <time>2022-01-09T10:14:13Z</time>
      </trkpt>
      <trkpt lat="47.64584" lon="5.97711">
        <ele>224.79</ele>
        <time>2022-01-09T10:14:16Z</time>
      </trkpt>
      <trkpt lat="47.64597" lon="5.97693">
        <ele>225.16</ele>
        <time>2022-01-09T10:14:19Z</time>
      </trkpt>
      <trkpt lat="47.64612" lon="5.97677">
        <ele>224.98</ele>
        <time>2022-01-09T10:14:22Z</time>
      </trkpt>
      <trkpt lat="47.64626" lon="5.9766">
        <ele>224.27</ele>
        <time>2022-01-09T10:14:25Z</time>
      </trkpt>
      <trkpt lat="47.64641" lon="5.97641">
        <ele>223.82</ele>
        <time>2022-01-09T10:14:28Z</time>
      </trkpt>
      <trkpt lat="47.64656" lon="5.97622">
        <ele>223.97</ele>
        <time>2022-01-09T10:14:31Z</time>
      </trkpt>
      <trkpt lat="47.64673" lon="5.97604">
        <ele>224.4</ele>
        <time>2022-01-09T10:14:34Z</time>
      </trkpt>
      <trkpt lat="47.64689" lon="5.97591">
        <ele>225.12</ele>
        <time>2022-01-09T10:14:37Z</time>
      </trkpt>
      <trkpt lat="47.64705" lon="5.97578">
        <ele>225.53</ele>
        <time>2022-01-09T10:14:40Z</time>
      </trkpt>
      <trkpt lat="47.64727" lon="5.97566">
        <ele>226.36</ele>
        <time>2022-01-09T10:14:44Z</time>
      </trkpt>
      <trkpt lat="47.64745" lon="5.97559">
        <ele>226.69</ele>
        <time>2022-01-09T10:14:47Z</time>
      </trkpt>
      <trkpt lat="47.64764" lon="5.97555">
        <ele>226.68</ele>
        <time>2022-01-09T10:14:50Z</time>
      </trkpt>
      <trkpt lat="47.64787" lon="5.97551">
        <ele>226.37</ele>
        <time>2022-01-09T10:14:54Z</time>
      </trkpt>
      <trkpt lat="47.6481" lon="5.97545">
        <ele>226.51</ele>
        <time>2022-01-09T10:14:58Z</time>
      </trkpt>
      <trkpt lat="47.64834" lon="5.97541">
        <ele>227.09</ele>
        <time>2022-01-09T10:15:02Z</time>
      </trkpt>
      <trkpt lat="47.64858" lon="5.97536">
        <ele>228.4</ele>
        <time>2022-01-09T10:15:06Z</time>
      </trkpt>
      <trkpt lat="47.64877" lon="5.97532">
        <ele>229.29</ele>
        <time>2022-01-09T10:15:09Z</time>
      </trkpt>
      <trkpt lat="47.64901" lon="5.97526">
        <ele>228.79</ele>
        <time>2022-01-09T10:15:13Z</time>
      </trkpt>
      <trkpt lat="47.64919" lon="5.97521">
        <ele>227.89</ele>
        <time>2022-01-09T10:15:16Z</time>
      </trkpt>
      <trkpt lat="47.64938" lon="5.97519">
        <ele>227.76</ele>
        <time>2022-01-09T10:15:19Z</time>
      </trkpt>
      <trkpt lat="47.64957" lon="5.97516">
        <ele>227.84</ele>
        <time>2022-01-09T10:15:22Z</time>
      </trkpt>
      <trkpt lat="47.64977" lon="5.97514">
        <ele>228.15</ele>
        <time>2022-01-09T10:15:25Z</time>
      </trkpt>
      <trkpt lat="47.64997" lon="5.97518">
        <ele>228.71</ele>
        <time>2022-01-09T10:15:28Z</time>
      </trkpt>
      <trkpt lat="47.65015" lon="5.97524">
        <ele>229.45</ele>
        <time>2022-01-09T10:15:31Z</time>
      </trkpt>
      <trkpt lat="47.65032" lon="5.97535">
        <ele>230.25</ele>
        <time>2022-01-09T10:15:34Z</time>
      </trkpt>
      <trkpt lat="47.65048" lon="5.97552">
        <ele>230.48</ele>
        <time>2022-01-09T10:15:37Z</time>
      </trkpt>
      <trkpt lat="47.65063" lon="5.97571">
        <ele>230.27</ele>
        <time>2022-01-09T10:15:40Z</time>
      </trkpt>
      <trkpt lat="47.65078" lon="5.97598">
        <ele>229.63</ele>
        <time>2022-01-09T10:15:43Z</time>
      </trkpt>
      <trkpt lat="47.65093" lon="5.97619">
        <ele>228.8</ele>
        <time>2022-01-09T10:15:46Z</time>
      </trkpt>
      <trkpt lat="47.6511" lon="5.97633">
        <ele>228.98</ele>
        <time>2022-01-09T10:15:49Z</time>
      </trkpt>
      <trkpt lat="47.6513" lon="5.97641">
        <ele>229.29</ele>
        <time>2022-01-09T10:15:52Z</time>
      </trkpt>
      <trkpt lat="47.65149" lon="5.97639">
        <ele>229.89</ele>
        <time>2022-01-09T10:15:55Z</time>
      </trkpt>
      <trkpt lat="47.65168" lon="5.97633">
        <ele>230.23</ele>
        <time>2022-01-09T10:15:58Z</time>
      </trkpt>
      <trkpt lat="47.65187" lon="5.97628">
        <ele>229.17</ele>
        <time>2022-01-09T10:16:01Z</time>
      </trkpt>
      <trkpt lat="47.65205" lon="5.97624">
        <ele>227.73</ele>
        <time>2022-01-09T10:16:04Z</time>
      </trkpt>
      <trkpt lat="47.65224" lon="5.97618">
        <ele>226.54</ele>
        <time>2022-01-09T10:16:07Z</time>
      </trkpt>
      <trkpt lat="47.65245" lon="5.97611">
        <ele>225.85</ele>
        <time>2022-01-09T10:16:10Z</time>
      </trkpt>
      <trkpt lat="47.65266" lon="5.97603">
        <ele>225.04</ele>
        <time>2022-01-09T10:16:13Z</time>
      </trkpt>
      <trkpt lat="47.65288" lon="5.97594">
        <ele>224.45</ele>
        <time>2022-01-09T10:16:16Z</time>
      </trkpt>
      <trkpt lat="47.65311" lon="5.97586">
        <ele>223.94</ele>
        <time>2022-01-09T10:16:19Z</time>
      </trkpt>
      <trkpt lat="47.65332" lon="5.97578">
        <ele>223.17</ele>
        <time>2022-01-09T10:16:22Z</time>
      </trkpt>
      <trkpt lat="47.65351" lon="5.97571">
        <ele>222.77</ele>
        <time>2022-01-09T10:16:25Z</time>
      </trkpt>
      <trkpt lat="47.6537" lon="5.97564">
        <ele>222.45</ele>
        <time>2022-01-09T10:16:28Z</time>
      </trkpt>
      <trkpt lat="47.65389" lon="5.97556">
        <ele>222.14</ele>
        <time>2022-01-09T10:16:31Z</time>
      </trkpt>
      <trkpt lat="47.65407" lon="5.97548">
        <ele>222.06</ele>
        <time>2022-01-09T10:16:34Z</time>
      </trkpt>
      <trkpt lat="47.65425" lon="5.97541">
        <ele>221.89</ele>
        <time>2022-01-09T10:16:37Z</time>
      </trkpt>
      <trkpt lat="47.65442" lon="5.97533">
        <ele>221.64</ele>
        <time>2022-01-09T10:16:40Z</time>
      </trkpt>
      <trkpt lat="47.65466" lon="5.97524">
        <ele>221.78</ele>
        <time>2022-01-09T10:16:44Z</time>
      </trkpt>
      <trkpt lat="47.65483" lon="5.97515">
        <ele>221.92</ele>
        <time>2022-01-09T10:16:47Z</time>
      </trkpt>
      <trkpt lat="47.65501" lon="5.97508">
        <ele>221.65</ele>
        <time>2022-01-09T10:16:50Z</time>
      </trkpt>
      <trkpt lat="47.65519" lon="5.97502">
        <ele>221.49</ele>
        <time>2022-01-09T10:16:53Z</time>
      </trkpt>
      <trkpt lat="47.65537" lon="5.97495">
        <ele>221.01</ele>
        <time>2022-01-09T10:16:56Z</time>
      </trkpt>
      <trkpt lat="47.65554" lon="5.97486">
        <ele>220.78</ele>
        <time>2022-01-09T10:16:59Z</time>
      </trkpt>
      <trkpt lat="47.65572" lon="5.9748">
        <ele>220.34</ele>
        <time>2022-01-09T10:17:02Z</time>
      </trkpt>
      <trkpt lat="47.6559" lon="5.97473">
        <ele>219.62</ele>
        <time>2022-01-09T10:17:05Z</time>
      </trkpt>
      <trkpt lat="47.65609" lon="5.97468">
        <ele>219.16</ele>
        <time>2022-01-09T10:17:08Z</time>
      </trkpt>
      <trkpt lat="47.6563" lon="5.97456">
        <ele>218.72</ele>
        <time>2022-01-09T10:17:12Z</time>
      </trkpt>
      <trkpt lat="47.65653" lon="5.97448">
        <ele>219.23</ele>
        <time>2022-01-09T10:17:16Z</time>
      </trkpt>
      <trkpt lat="47.65674" lon="5.97437">
        <ele>219.76</ele>
        <time>2022-01-09T10:17:20Z</time>
      </trkpt>
      <trkpt lat="47.65697" lon="5.97427">
        <ele>219.98</ele>
        <time>2022-01-09T10:17:24Z</time>
      </trkpt>
      <trkpt lat="47.65715" lon="5.97421">
        <ele>219.13</ele>
        <time>2022-01-09T10:17:27Z</time>
      </trkpt>
      <trkpt lat="47.65733" lon="5.97415">
        <ele>218.01</ele>
        <time>2022-01-09T10:17:30Z</time>
      </trkpt>
      <trkpt lat="47.65751" lon="5.97408">
        <ele>217.4</ele>
        <time>2022-01-09T10:17:33Z</time>
      </trkpt>
      <trkpt lat="47.65773" lon="5.974">
        <ele>216.48</ele>
        <time>2022-01-09T10:17:37Z</time>
      </trkpt>
      <trkpt lat="47.65795" lon="5.97391">
        <ele>215.9</ele>
        <time>2022-01-09T10:17:41Z</time>
      </trkpt>
      <trkpt lat="47.65813" lon="5.97384">
        <ele>216.19</ele>
        <time>2022-01-09T10:17:44Z</time>
      </trkpt>
      <trkpt lat="47.65836" lon="5.97375">
        <ele>215.29</ele>
        <time>2022-01-09T10:17:48Z</time>
      </trkpt>
      <trkpt lat="47.65855" lon="5.97364">
        <ele>215.6</ele>
        <time>2022-01-09T10:17:52Z</time>
      </trkpt>
      <trkpt lat="47.65878" lon="5.97354">
        <ele>215.93</ele>
        <time>2022-01-09T10:17:56Z</time>
      </trkpt>
      <trkpt lat="47.65896" lon="5.97348">
        <ele>216.67</ele>
        <time>2022-01-09T10:17:59Z</time>
      </trkpt>
      <trkpt lat="47.65913" lon="5.97342">
        <ele>216.49</ele>
        <time>2022-01-09T10:18:02Z</time>
      </trkpt>
      <trkpt lat="47.65931" lon="5.97333">
        <ele>216.63</ele>
        <time>2022-01-09T10:18:05Z</time>
      </trkpt>
      <trkpt lat="47.65954" lon="5.97328">
        <ele>216.34</ele>
        <time>2022-01-09T10:18:09Z</time>
      </trkpt>
      <trkpt lat="47.65972" lon="5.97319">
        <ele>215.53</ele>
        <time>2022-01-09T10:18:12Z</time>
      </trkpt>
      <trkpt lat="47.65991" lon="5.97312">
        <ele>215.16</ele>
        <time>2022-01-09T10:18:16Z</time>
      </trkpt>
      <trkpt lat="47.66011" lon="5.973">
        <ele>215.18</ele>
        <time>2022-01-09T10:18:20Z</time>
      </trkpt>
      <trkpt lat="47.66029" lon="5.97296">
        <ele>214.77</ele>
        <time>2022-01-09T10:18:23Z</time>
      </trkpt>
      <trkpt lat="47.66048" lon="5.9729">
        <ele>214.38</ele>
        <time>2022-01-09T10:18:26Z</time>
      </trkpt>
      <trkpt lat="47.6607" lon="5.97281">
        <ele>214.66</ele>
        <time>2022-01-09T10:18:30Z</time>
      </trkpt>
      <trkpt lat="47.66091" lon="5.97272">
        <ele>214.97</ele>
        <time>2022-01-09T10:18:34Z</time>
      </trkpt>
      <trkpt lat="47.66112" lon="5.97264">
        <ele>215.19</ele>
        <time>2022-01-09T10:18:38Z</time>
      </trkpt>
      <trkpt lat="47.66132" lon="5.97256">
        <ele>215.42</ele>
        <time>2022-01-09T10:18:42Z</time>
      </trkpt>
      <trkpt lat="47.66152" lon="5.97249">
        <ele>215.61</ele>
        <time>2022-01-09T10:18:46Z</time>
      </trkpt>
      <trkpt lat="47.66171" lon="5.97241">
        <ele>215.69</ele>
        <time>2022-01-09T10:18:50Z</time>
      </trkpt>
      <trkpt lat="47.66191" lon="5.97233">
        <ele>215.7</ele>
        <time>2022-01-09T10:18:54Z</time>
      </trkpt>
      <trkpt lat="47.66209" lon="5.97226">
        <ele>215.84</ele>
        <time>2022-01-09T10:18:58Z</time>
      </trkpt>
      <trkpt lat="47.66227" lon="5.97217">
        <ele>216.43</ele>
        <time>2022-01-09T10:19:55Z</time>
      </trkpt>
      <trkpt lat="47.66245" lon="5.97224">
        <ele>216.93</ele>
        <time>2022-01-09T10:20:02Z</time>
      </trkpt>
      <trkpt lat="47.66243" lon="5.97257">
        <ele>216.44</ele>
        <time>2022-01-09T10:20:06Z</time>
      </trkpt>
      <trkpt lat="47.6624" lon="5.97283">
        <ele>216.5</ele>
        <time>2022-01-09T10:20:09Z</time>
      </trkpt>
      <trkpt lat="47.66237" lon="5.97318">
        <ele>216.55</ele>
        <time>2022-01-09T10:20:13Z</time>
      </trkpt>
      <trkpt lat="47.66236" lon="5.97346">
        <ele>216.68</ele>
        <time>2022-01-09T10:20:16Z</time>
      </trkpt>
      <trkpt lat="47.66235" lon="5.9738">
        <ele>217.43</ele>
        <time>2022-01-09T10:20:20Z</time>
      </trkpt>
      <trkpt lat="47.66239" lon="5.97406">
        <ele>217.74</ele>
        <time>2022-01-09T10:20:24Z</time>
      </trkpt>
      <trkpt lat="47.6626" lon="5.97406">
        <ele>217.76</ele>
        <time>2022-01-09T10:20:28Z</time>
      </trkpt>
      <trkpt lat="47.66279" lon="5.97409">
        <ele>217.54</ele>
        <time>2022-01-09T10:20:32Z</time>
      </trkpt>
      <trkpt lat="47.66283" lon="5.97435">
        <ele>217.94</ele>
        <time>2022-01-09T10:20:48Z</time>
      </trkpt>
      <trkpt lat="47.6628" lon="5.97462">
        <ele>217.3</ele>
        <time>2022-01-09T10:20:52Z</time>
      </trkpt>
      <trkpt lat="47.66276" lon="5.97494">
        <ele>217.21</ele>
        <time>2022-01-09T10:20:57Z</time>
      </trkpt>
      <trkpt lat="47.66272" lon="5.97521">
        <ele>217.39</ele>
        <time>2022-01-09T10:21:01Z</time>
      </trkpt>
      <trkpt lat="47.66266" lon="5.97549">
        <ele>217.13</ele>
        <time>2022-01-09T10:21:05Z</time>
      </trkpt>
      <trkpt lat="47.66267" lon="5.97576">
        <ele>217.81</ele>
        <time>2022-01-09T10:21:09Z</time>
      </trkpt>
      <trkpt lat="47.66257" lon="5.976">
        <ele>217.69</ele>
        <time>2022-01-09T10:21:13Z</time>
      </trkpt>
      <trkpt lat="47.66241" lon="5.97621">
        <ele>217.45</ele>
        <time>2022-01-09T10:21:17Z</time>
      </trkpt>
      <trkpt lat="47.66226" lon="5.97642">
        <ele>217.38</ele>
        <time>2022-01-09T10:21:21Z</time>
      </trkpt>
      <trkpt lat="47.66214" lon="5.97661">
        <ele>217.68</ele>
        <time>2022-01-09T10:21:25Z</time>
      </trkpt>
      <trkpt lat="47.66198" lon="5.97685">
        <ele>218.47</ele>
        <time>2022-01-09T10:21:30Z</time>
      </trkpt>
      <trkpt lat="47.66184" lon="5.97709">
        <ele>218.92</ele>
        <time>2022-01-09T10:21:35Z</time>
      </trkpt>
      <trkpt lat="47.6617" lon="5.97731">
        <ele>218.95</ele>
        <time>2022-01-09T10:21:39Z</time>
      </trkpt>
      <trkpt lat="47.66157" lon="5.97755">
        <ele>219.26</ele>
        <time>2022-01-09T10:21:43Z</time>
      </trkpt>
      <trkpt lat="47.66145" lon="5.97778">
        <ele>219.2</ele>
        <time>2022-01-09T10:21:47Z</time>
      </trkpt>
      <trkpt lat="47.66132" lon="5.97801">
        <ele>219.17</ele>
        <time>2022-01-09T10:21:51Z</time>
      </trkpt>
      <trkpt lat="47.66121" lon="5.97824">
        <ele>219.11</ele>
        <time>2022-01-09T10:21:55Z</time>
      </trkpt>
      <trkpt lat="47.66111" lon="5.97848">
        <ele>219.33</ele>
        <time>2022-01-09T10:21:59Z</time>
      </trkpt>
      <trkpt lat="47.66098" lon="5.97871">
        <ele>219.49</ele>
        <time>2022-01-09T10:22:03Z</time>
      </trkpt>
      <trkpt lat="47.66086" lon="5.97895">
        <ele>219.46</ele>
        <time>2022-01-09T10:22:07Z</time>
      </trkpt>
      <trkpt lat="47.66072" lon="5.9792">
        <ele>219.28</ele>
        <time>2022-01-09T10:22:11Z</time>
      </trkpt>
      <trkpt lat="47.66061" lon="5.97944">
        <ele>219.24</ele>
        <time>2022-01-09T10:22:15Z</time>
      </trkpt>
      <trkpt lat="47.66048" lon="5.97968">
        <ele>218.85</ele>
        <time>2022-01-09T10:22:19Z</time>
      </trkpt>
      <trkpt lat="47.66036" lon="5.97993">
        <ele>218.48</ele>
        <time>2022-01-09T10:22:23Z</time>
      </trkpt>
      <trkpt lat="47.66025" lon="5.98018">
        <ele>218.5</ele>
        <time>2022-01-09T10:22:27Z</time>
      </trkpt>
      <trkpt lat="47.66013" lon="5.98044">
        <ele>218.45</ele>
        <time>2022-01-09T10:22:31Z</time>
      </trkpt>
      <trkpt lat="47.65998" lon="5.98072">
        <ele>217.79</ele>
        <time>2022-01-09T10:22:35Z</time>
      </trkpt>
      <trkpt lat="47.65987" lon="5.98093">
        <ele>217.29</ele>
        <time>2022-01-09T10:22:38Z</time>
      </trkpt>
      <trkpt lat="47.65974" lon="5.98115">
        <ele>216.79</ele>
        <time>2022-01-09T10:22:41Z</time>
      </trkpt>
      <trkpt lat="47.65962" lon="5.98138">
        <ele>216.32</ele>
        <time>2022-01-09T10:22:44Z</time>
      </trkpt>
      <trkpt lat="47.65949" lon="5.98158">
        <ele>216.28</ele>
        <time>2022-01-09T10:22:47Z</time>
      </trkpt>
      <trkpt lat="47.65935" lon="5.98178">
        <ele>216.42</ele>
        <time>2022-01-09T10:22:50Z</time>
      </trkpt>
      <trkpt lat="47.6592" lon="5.98199">
        <ele>216.26</ele>
        <time>2022-01-09T10:22:53Z</time>
      </trkpt>
      <trkpt lat="47.65908" lon="5.98221">
        <ele>215.79</ele>
        <time>2022-01-09T10:22:56Z</time>
      </trkpt>
      <trkpt lat="47.65896" lon="5.98244">
        <ele>215.66</ele>
        <time>2022-01-09T10:22:59Z</time>
      </trkpt>
      <trkpt lat="47.65884" lon="5.98266">
        <ele>215.39</ele>
        <time>2022-01-09T10:23:02Z</time>
      </trkpt>
      <trkpt lat="47.65871" lon="5.98287">
        <ele>214.83</ele>
        <time>2022-01-09T10:23:05Z</time>
      </trkpt>
      <trkpt lat="47.65857" lon="5.98305">
        <ele>214.2</ele>
        <time>2022-01-09T10:23:08Z</time>
      </trkpt>
      <trkpt lat="47.65837" lon="5.98323">
        <ele>213.89</ele>
        <time>2022-01-09T10:23:12Z</time>
      </trkpt>
      <trkpt lat="47.65816" lon="5.98339">
        <ele>213.84</ele>
        <time>2022-01-09T10:23:16Z</time>
      </trkpt>
      <trkpt lat="47.65799" lon="5.98359">
        <ele>213.91</ele>
        <time>2022-01-09T10:23:20Z</time>
      </trkpt>
      <trkpt lat="47.65785" lon="5.98383">
        <ele>213.45</ele>
        <time>2022-01-09T10:23:24Z</time>
      </trkpt>
      <trkpt lat="47.65775" lon="5.98413">
        <ele>213.98</ele>
        <time>2022-01-09T10:23:28Z</time>
      </trkpt>
      <trkpt lat="47.65767" lon="5.98439">
        <ele>215.12</ele>
        <time>2022-01-09T10:23:32Z</time>
      </trkpt>
      <trkpt lat="47.65762" lon="5.98468">
        <ele>215.93</ele>
        <time>2022-01-09T10:23:36Z</time>
      </trkpt>
      <trkpt lat="47.65755" lon="5.98499">
        <ele>216.24</ele>
        <time>2022-01-09T10:23:40Z</time>
      </trkpt>
      <trkpt lat="47.65744" lon="5.98529">
        <ele>216.26</ele>
        <time>2022-01-09T10:23:44Z</time>
      </trkpt>
      <trkpt lat="47.65733" lon="5.98556">
        <ele>216.07</ele>
        <time>2022-01-09T10:23:49Z</time>
      </trkpt>
      <trkpt lat="47.65725" lon="5.98583">
        <ele>216.96</ele>
        <time>2022-01-09T10:23:53Z</time>
      </trkpt>
      <trkpt lat="47.65715" lon="5.9861">
        <ele>218.2</ele>
        <time>2022-01-09T10:23:57Z</time>
      </trkpt>
      <trkpt lat="47.65702" lon="5.98629">
        <ele>219.01</ele>
        <time>2022-01-09T10:24:00Z</time>
      </trkpt>
      <trkpt lat="47.65692" lon="5.98656">
        <ele>220.29</ele>
        <time>2022-01-09T10:24:04Z</time>
      </trkpt>
      <trkpt lat="47.65686" lon="5.98685">
        <ele>219.95</ele>
        <time>2022-01-09T10:24:08Z</time>
      </trkpt>
      <trkpt lat="47.65679" lon="5.98713">
        <ele>219.81</ele>
        <time>2022-01-09T10:24:12Z</time>
      </trkpt>
      <trkpt lat="47.65668" lon="5.98744">
        <ele>219.12</ele>
        <time>2022-01-09T10:24:16Z</time>
      </trkpt>
      <trkpt lat="47.65657" lon="5.9877">
        <ele>219.72</ele>
        <time>2022-01-09T10:24:20Z</time>
      </trkpt>
      <trkpt lat="47.65649" lon="5.98803">
        <ele>219.99</ele>
        <time>2022-01-09T10:24:24Z</time>
      </trkpt>
      <trkpt lat="47.65642" lon="5.98828">
        <ele>219.92</ele>
        <time>2022-01-09T10:24:27Z</time>
      </trkpt>
      <trkpt lat="47.65637" lon="5.98854">
        <ele>220.42</ele>
        <time>2022-01-09T10:24:30Z</time>
      </trkpt>
      <trkpt lat="47.65632" lon="5.9888">
        <ele>220.76</ele>
        <time>2022-01-09T10:24:33Z</time>
      </trkpt>
      <trkpt lat="47.65624" lon="5.98913">
        <ele>220.23</ele>
        <time>2022-01-09T10:24:37Z</time>
      </trkpt>
      <trkpt lat="47.65619" lon="5.98946">
        <ele>220.22</ele>
        <time>2022-01-09T10:24:41Z</time>
      </trkpt>
      <trkpt lat="47.65612" lon="5.98979">
        <ele>220.39</ele>
        <time>2022-01-09T10:24:45Z</time>
      </trkpt>
      <trkpt lat="47.65605" lon="5.99011">
        <ele>219.69</ele>
        <time>2022-01-09T10:24:49Z</time>
      </trkpt>
      <trkpt lat="47.65599" lon="5.99041">
        <ele>219.45</ele>
        <time>2022-01-09T10:24:53Z</time>
      </trkpt>
      <trkpt lat="47.65592" lon="5.99068">
        <ele>219.47</ele>
        <time>2022-01-09T10:24:57Z</time>
      </trkpt>
      <trkpt lat="47.65589" lon="5.99094">
        <ele>218.82</ele>
        <time>2022-01-09T10:25:01Z</time>
      </trkpt>
      <trkpt lat="47.65583" lon="5.99125">
        <ele>218.25</ele>
        <time>2022-01-09T10:25:06Z</time>
      </trkpt>
      <trkpt lat="47.65575" lon="5.99154">
        <ele>217.35</ele>
        <time>2022-01-09T10:25:11Z</time>
      </trkpt>
      <trkpt lat="47.65567" lon="5.99179">
        <ele>216.95</ele>
        <time>2022-01-09T10:25:15Z</time>
      </trkpt>
      <trkpt lat="47.65559" lon="5.99207">
        <ele>216.33</ele>
        <time>2022-01-09T10:25:19Z</time>
      </trkpt>
      <trkpt lat="47.65549" lon="5.99239">
        <ele>215.55</ele>
        <time>2022-01-09T10:25:23Z</time>
      </trkpt>
      <trkpt lat="47.65542" lon="5.99264">
        <ele>215</ele>
        <time>2022-01-09T10:25:26Z</time>
      </trkpt>
      <trkpt lat="47.65533" lon="5.99291">
        <ele>214.58</ele>
        <time>2022-01-09T10:25:29Z</time>
      </trkpt>
      <trkpt lat="47.65526" lon="5.99317">
        <ele>214.87</ele>
        <time>2022-01-09T10:25:32Z</time>
      </trkpt>
      <trkpt lat="47.65519" lon="5.99343">
        <ele>215.37</ele>
        <time>2022-01-09T10:25:35Z</time>
      </trkpt>
      <trkpt lat="47.65512" lon="5.99368">
        <ele>215.19</ele>
        <time>2022-01-09T10:25:38Z</time>
      </trkpt>
      <trkpt lat="47.65503" lon="5.99399">
        <ele>214.77</ele>
        <time>2022-01-09T10:25:42Z</time>
      </trkpt>
      <trkpt lat="47.65495" lon="5.99424">
        <ele>214.47</ele>
        <time>2022-01-09T10:25:45Z</time>
      </trkpt>
      <trkpt lat="47.65485" lon="5.99456">
        <ele>214.18</ele>
        <time>2022-01-09T10:25:49Z</time>
      </trkpt>
      <trkpt lat="47.65475" lon="5.99488">
        <ele>214.08</ele>
        <time>2022-01-09T10:25:53Z</time>
      </trkpt>
      <trkpt lat="47.65465" lon="5.99518">
        <ele>213.91</ele>
        <time>2022-01-09T10:25:57Z</time>
      </trkpt>
      <trkpt lat="47.65455" lon="5.99547">
        <ele>214.02</ele>
        <time>2022-01-09T10:26:01Z</time>
      </trkpt>
      <trkpt lat="47.65445" lon="5.99574">
        <ele>214.67</ele>
        <time>2022-01-09T10:26:05Z</time>
      </trkpt>
      <trkpt lat="47.65432" lon="5.996">
        <ele>215.1</ele>
        <time>2022-01-09T10:26:09Z</time>
      </trkpt>
      <trkpt lat="47.6542" lon="5.99627">
        <ele>214.87</ele>
        <time>2022-01-09T10:26:13Z</time>
      </trkpt>
      <trkpt lat="47.65407" lon="5.99656">
        <ele>214.92</ele>
        <time>2022-01-09T10:26:17Z</time>
      </trkpt>
      <trkpt lat="47.65395" lon="5.99685">
        <ele>215.21</ele>
        <time>2022-01-09T10:26:21Z</time>
      </trkpt>
      <trkpt lat="47.65383" lon="5.99714">
        <ele>215.25</ele>
        <time>2022-01-09T10:26:25Z</time>
      </trkpt>
      <trkpt lat="47.65371" lon="5.99744">
        <ele>215.09</ele>
        <time>2022-01-09T10:26:29Z</time>
      </trkpt>
      <trkpt lat="47.65361" lon="5.99773">
        <ele>215.03</ele>
        <time>2022-01-09T10:26:33Z</time>
      </trkpt>
      <trkpt lat="47.65349" lon="5.99798">
        <ele>215.32</ele>
        <time>2022-01-09T10:26:37Z</time>
      </trkpt>
      <trkpt lat="47.65338" lon="5.99824">
        <ele>214.58</ele>
        <time>2022-01-09T10:26:41Z</time>
      </trkpt>
      <trkpt lat="47.65327" lon="5.99852">
        <ele>214.01</ele>
        <time>2022-01-09T10:26:45Z</time>
      </trkpt>
      <trkpt lat="47.65316" lon="5.99883">
        <ele>213.74</ele>
        <time>2022-01-09T10:26:49Z</time>
      </trkpt>
      <trkpt lat="47.65309" lon="5.99916">
        <ele>213.73</ele>
        <time>2022-01-09T10:26:53Z</time>
      </trkpt>
      <trkpt lat="47.65303" lon="5.99942">
        <ele>213.66</ele>
        <time>2022-01-09T10:26:56Z</time>
      </trkpt>
      <trkpt lat="47.65299" lon="5.99968">
        <ele>213.61</ele>
        <time>2022-01-09T10:26:59Z</time>
      </trkpt>
      <trkpt lat="47.65297" lon="6.00004">
        <ele>213.46</ele>
        <time>2022-01-09T10:27:03Z</time>
      </trkpt>
      <trkpt lat="47.65299" lon="6.0003">
        <ele>213.81</ele>
        <time>2022-01-09T10:27:06Z</time>
      </trkpt>
      <trkpt lat="47.65302" lon="6.00065">
        <ele>213.89</ele>
        <time>2022-01-09T10:27:10Z</time>
      </trkpt>
      <trkpt lat="47.65307" lon="6.00099">
        <ele>213.98</ele>
        <time>2022-01-09T10:27:14Z</time>
      </trkpt>
      <trkpt lat="47.65312" lon="6.00132">
        <ele>214.09</ele>
        <time>2022-01-09T10:27:18Z</time>
      </trkpt>
      <trkpt lat="47.65317" lon="6.00166">
        <ele>213.97</ele>
        <time>2022-01-09T10:27:22Z</time>
      </trkpt>
      <trkpt lat="47.65322" lon="6.00199">
        <ele>214.55</ele>
        <time>2022-01-09T10:27:26Z</time>
      </trkpt>
      <trkpt lat="47.65326" lon="6.00231">
        <ele>215.35</ele>
        <time>2022-01-09T10:27:30Z</time>
      </trkpt>
      <trkpt lat="47.6533" lon="6.00264">
        <ele>215.58</ele>
        <time>2022-01-09T10:27:34Z</time>
      </trkpt>
      <trkpt lat="47.65333" lon="6.00297">
        <ele>215.92</ele>
        <time>2022-01-09T10:27:38Z</time>
      </trkpt>
      <trkpt lat="47.65338" lon="6.00331">
        <ele>215.86</ele>
        <time>2022-01-09T10:27:42Z</time>
      </trkpt>
      <trkpt lat="47.65344" lon="6.00363">
        <ele>216.13</ele>
        <time>2022-01-09T10:27:46Z</time>
      </trkpt>
      <trkpt lat="47.65351" lon="6.00389">
        <ele>216</ele>
        <time>2022-01-09T10:27:49Z</time>
      </trkpt>
      <trkpt lat="47.65359" lon="6.00419">
        <ele>215.95</ele>
        <time>2022-01-09T10:27:53Z</time>
      </trkpt>
      <trkpt lat="47.65365" lon="6.00452">
        <ele>216.65</ele>
        <time>2022-01-09T10:27:57Z</time>
      </trkpt>
      <trkpt lat="47.65367" lon="6.00484">
        <ele>216.69</ele>
        <time>2022-01-09T10:28:01Z</time>
      </trkpt>
      <trkpt lat="47.65359" lon="6.00513">
        <ele>216.02</ele>
        <time>2022-01-09T10:28:05Z</time>
      </trkpt>
      <trkpt lat="47.65344" lon="6.00538">
        <ele>215.59</ele>
        <time>2022-01-09T10:28:09Z</time>
      </trkpt>
      <trkpt lat="47.65337" lon="6.0057">
        <ele>215.24</ele>
        <time>2022-01-09T10:28:13Z</time>
      </trkpt>
      <trkpt lat="47.65335" lon="6.00602">
        <ele>214.68</ele>
        <time>2022-01-09T10:28:17Z</time>
      </trkpt>
      <trkpt lat="47.65332" lon="6.00633">
        <ele>214.23</ele>
        <time>2022-01-09T10:28:21Z</time>
      </trkpt>
      <trkpt lat="47.65328" lon="6.00662">
        <ele>214.31</ele>
        <time>2022-01-09T10:28:25Z</time>
      </trkpt>
      <trkpt lat="47.65312" lon="6.00675">
        <ele>215.32</ele>
        <time>2022-01-09T10:28:29Z</time>
      </trkpt>
      <trkpt lat="47.65292" lon="6.00674">
        <ele>215.63</ele>
        <time>2022-01-09T10:28:33Z</time>
      </trkpt>
      <trkpt lat="47.6527" lon="6.00674">
        <ele>215.69</ele>
        <time>2022-01-09T10:28:37Z</time>
      </trkpt>
      <trkpt lat="47.65248" lon="6.00674">
        <ele>215.44</ele>
        <time>2022-01-09T10:28:41Z</time>
      </trkpt>
      <trkpt lat="47.65226" lon="6.00674">
        <ele>215.39</ele>
        <time>2022-01-09T10:28:45Z</time>
      </trkpt>
      <trkpt lat="47.65204" lon="6.00673">
        <ele>215.27</ele>
        <time>2022-01-09T10:28:49Z</time>
      </trkpt>
      <trkpt lat="47.65182" lon="6.00673">
        <ele>215.25</ele>
        <time>2022-01-09T10:28:53Z</time>
      </trkpt>
      <trkpt lat="47.65161" lon="6.00672">
        <ele>215.34</ele>
        <time>2022-01-09T10:28:57Z</time>
      </trkpt>
      <trkpt lat="47.65139" lon="6.00671">
        <ele>215.28</ele>
        <time>2022-01-09T10:29:01Z</time>
      </trkpt>
      <trkpt lat="47.65119" lon="6.00671">
        <ele>215.34</ele>
        <time>2022-01-09T10:29:05Z</time>
      </trkpt>
      <trkpt lat="47.65099" lon="6.00669">
        <ele>215.36</ele>
        <time>2022-01-09T10:29:09Z</time>
      </trkpt>
      <trkpt lat="47.65079" lon="6.00669">
        <ele>214.97</ele>
        <time>2022-01-09T10:29:13Z</time>
      </trkpt>
      <trkpt lat="47.6506" lon="6.00669">
        <ele>214.75</ele>
        <time>2022-01-09T10:29:17Z</time>
      </trkpt>
      <trkpt lat="47.65038" lon="6.00671">
        <ele>215.19</ele>
        <time>2022-01-09T10:29:22Z</time>
      </trkpt>
      <trkpt lat="47.65016" lon="6.00675">
        <ele>215.48</ele>
        <time>2022-01-09T10:29:27Z</time>
      </trkpt>
      <trkpt lat="47.64994" lon="6.00677">
        <ele>215.29</ele>
        <time>2022-01-09T10:29:32Z</time>
      </trkpt>
      <trkpt lat="47.64972" lon="6.00681">
        <ele>214.98</ele>
        <time>2022-01-09T10:29:37Z</time>
      </trkpt>
      <trkpt lat="47.6495" lon="6.00685">
        <ele>214.84</ele>
        <time>2022-01-09T10:29:42Z</time>
      </trkpt>
      <trkpt lat="47.64933" lon="6.00688">
        <ele>214.61</ele>
        <time>2022-01-09T10:29:46Z</time>
      </trkpt>
      <trkpt lat="47.64911" lon="6.00693">
        <ele>214.65</ele>
        <time>2022-01-09T10:29:51Z</time>
      </trkpt>
      <trkpt lat="47.6489" lon="6.00697">
        <ele>214.57</ele>
        <time>2022-01-09T10:29:56Z</time>
      </trkpt>
      <trkpt lat="47.64868" lon="6.00701">
        <ele>214.65</ele>
        <time>2022-01-09T10:30:01Z</time>
      </trkpt>
      <trkpt lat="47.6485" lon="6.00704">
        <ele>214.34</ele>
        <time>2022-01-09T10:30:05Z</time>
      </trkpt>
      <trkpt lat="47.64829" lon="6.00708">
        <ele>214.2</ele>
        <time>2022-01-09T10:30:10Z</time>
      </trkpt>
      <trkpt lat="47.64809" lon="6.00712">
        <ele>213.85</ele>
        <time>2022-01-09T10:30:15Z</time>
      </trkpt>
      <trkpt lat="47.64791" lon="6.00717">
        <ele>213.4</ele>
        <time>2022-01-09T10:30:20Z</time>
      </trkpt>
      <trkpt lat="47.64773" lon="6.00719">
        <ele>213.02</ele>
        <time>2022-01-09T10:30:25Z</time>
      </trkpt>
      <trkpt lat="47.64752" lon="6.00725">
        <ele>212.79</ele>
        <time>2022-01-09T10:30:30Z</time>
      </trkpt>
      <trkpt lat="47.64733" lon="6.00728">
        <ele>211.98</ele>
        <time>2022-01-09T10:30:34Z</time>
      </trkpt>
      <trkpt lat="47.64712" lon="6.00731">
        <ele>211.61</ele>
        <time>2022-01-09T10:30:39Z</time>
      </trkpt>
      <trkpt lat="47.64694" lon="6.00736">
        <ele>211.39</ele>
        <time>2022-01-09T10:30:43Z</time>
      </trkpt>
      <trkpt lat="47.64682" lon="6.00762">
        <ele>211.54</ele>
        <time>2022-01-09T10:30:48Z</time>
      </trkpt>
      <trkpt lat="47.64682" lon="6.00791">
        <ele>211.97</ele>
        <time>2022-01-09T10:30:52Z</time>
      </trkpt>
      <trkpt lat="47.64683" lon="6.00822">
        <ele>212.6</ele>
        <time>2022-01-09T10:30:56Z</time>
      </trkpt>
      <trkpt lat="47.64684" lon="6.00853">
        <ele>213.1</ele>
        <time>2022-01-09T10:31:00Z</time>
      </trkpt>
      <trkpt lat="47.64683" lon="6.00884">
        <ele>212.33</ele>
        <time>2022-01-09T10:31:04Z</time>
      </trkpt>
      <trkpt lat="47.64674" lon="6.00913">
        <ele>212.33</ele>
        <time>2022-01-09T10:31:08Z</time>
      </trkpt>
      <trkpt lat="47.64667" lon="6.00941">
        <ele>212.23</ele>
        <time>2022-01-09T10:31:12Z</time>
      </trkpt>
      <trkpt lat="47.6467" lon="6.00976">
        <ele>212.52</ele>
        <time>2022-01-09T10:31:16Z</time>
      </trkpt>
      <trkpt lat="47.64673" lon="6.01004">
        <ele>213.23</ele>
        <time>2022-01-09T10:31:19Z</time>
      </trkpt>
      <trkpt lat="47.64675" lon="6.01033">
        <ele>213.95</ele>
        <time>2022-01-09T10:31:22Z</time>
      </trkpt>
      <trkpt lat="47.64678" lon="6.0106">
        <ele>214.55</ele>
        <time>2022-01-09T10:31:25Z</time>
      </trkpt>
      <trkpt lat="47.64681" lon="6.01088">
        <ele>214.64</ele>
        <time>2022-01-09T10:31:28Z</time>
      </trkpt>
      <trkpt lat="47.64684" lon="6.01122">
        <ele>214.2</ele>
        <time>2022-01-09T10:31:32Z</time>
      </trkpt>
      <trkpt lat="47.64688" lon="6.01156">
        <ele>213.63</ele>
        <time>2022-01-09T10:31:36Z</time>
      </trkpt>
      <trkpt lat="47.64692" lon="6.01189">
        <ele>213.95</ele>
        <time>2022-01-09T10:31:40Z</time>
      </trkpt>
      <trkpt lat="47.64696" lon="6.01223">
        <ele>214.12</ele>
        <time>2022-01-09T10:31:44Z</time>
      </trkpt>
      <trkpt lat="47.647" lon="6.01257">
        <ele>213.9</ele>
        <time>2022-01-09T10:31:48Z</time>
      </trkpt>
      <trkpt lat="47.64705" lon="6.01291">
        <ele>213.19</ele>
        <time>2022-01-09T10:31:52Z</time>
      </trkpt>
      <trkpt lat="47.64711" lon="6.01322">
        <ele>213.06</ele>
        <time>2022-01-09T10:31:56Z</time>
      </trkpt>
      <trkpt lat="47.64717" lon="6.01353">
        <ele>213.36</ele>
        <time>2022-01-09T10:32:00Z</time>
      </trkpt>
      <trkpt lat="47.64725" lon="6.01384">
        <ele>213.76</ele>
        <time>2022-01-09T10:32:04Z</time>
      </trkpt>
      <trkpt lat="47.64732" lon="6.01417">
        <ele>213.46</ele>
        <time>2022-01-09T10:32:08Z</time>
      </trkpt>
      <trkpt lat="47.64738" lon="6.0145">
        <ele>212.87</ele>
        <time>2022-01-09T10:32:12Z</time>
      </trkpt>
      <trkpt lat="47.64746" lon="6.01484">
        <ele>212.31</ele>
        <time>2022-01-09T10:32:16Z</time>
      </trkpt>
      <trkpt lat="47.64752" lon="6.01509">
        <ele>211.71</ele>
        <time>2022-01-09T10:32:19Z</time>
      </trkpt>
      <trkpt lat="47.6476" lon="6.0154">
        <ele>211.74</ele>
        <time>2022-01-09T10:32:23Z</time>
      </trkpt>
      <trkpt lat="47.6477" lon="6.01566">
        <ele>212.04</ele>
        <time>2022-01-09T10:32:27Z</time>
      </trkpt>
      <trkpt lat="47.64781" lon="6.01589">
        <ele>211.78</ele>
        <time>2022-01-09T10:32:30Z</time>
      </trkpt>
      <trkpt lat="47.64795" lon="6.01614">
        <ele>212.27</ele>
        <time>2022-01-09T10:32:34Z</time>
      </trkpt>
      <trkpt lat="47.64808" lon="6.01637">
        <ele>212.58</ele>
        <time>2022-01-09T10:32:38Z</time>
      </trkpt>
      <trkpt lat="47.64821" lon="6.01664">
        <ele>212.47</ele>
        <time>2022-01-09T10:32:42Z</time>
      </trkpt>
      <trkpt lat="47.64831" lon="6.01696">
        <ele>211.83</ele>
        <time>2022-01-09T10:32:46Z</time>
      </trkpt>
      <trkpt lat="47.64838" lon="6.01727">
        <ele>211.7</ele>
        <time>2022-01-09T10:32:50Z</time>
      </trkpt>
      <trkpt lat="47.6485" lon="6.01758">
        <ele>212.63</ele>
        <time>2022-01-09T10:32:54Z</time>
      </trkpt>
      <trkpt lat="47.6486" lon="6.0178">
        <ele>213.25</ele>
        <time>2022-01-09T10:32:57Z</time>
      </trkpt>
      <trkpt lat="47.64873" lon="6.0181">
        <ele>213.63</ele>
        <time>2022-01-09T10:33:01Z</time>
      </trkpt>
      <trkpt lat="47.64884" lon="6.01837">
        <ele>214.08</ele>
        <time>2022-01-09T10:33:05Z</time>
      </trkpt>
      <trkpt lat="47.64894" lon="6.01868">
        <ele>214.2</ele>
        <time>2022-01-09T10:33:09Z</time>
      </trkpt>
      <trkpt lat="47.64905" lon="6.01899">
        <ele>213.54</ele>
        <time>2022-01-09T10:33:13Z</time>
      </trkpt>
      <trkpt lat="47.64916" lon="6.01926">
        <ele>212.95</ele>
        <time>2022-01-09T10:33:17Z</time>
      </trkpt>
      <trkpt lat="47.64928" lon="6.0195">
        <ele>213.03</ele>
        <time>2022-01-09T10:33:21Z</time>
      </trkpt>
      <trkpt lat="47.64944" lon="6.01966">
        <ele>213.46</ele>
        <time>2022-01-09T10:33:25Z</time>
      </trkpt>
      <trkpt lat="47.64964" lon="6.01974">
        <ele>214.5</ele>
        <time>2022-01-09T10:33:29Z</time>
      </trkpt>
      <trkpt lat="47.64986" lon="6.01982">
        <ele>215.48</ele>
        <time>2022-01-09T10:33:33Z</time>
      </trkpt>
      <trkpt lat="47.65006" lon="6.0199">
        <ele>215.85</ele>
        <time>2022-01-09T10:33:37Z</time>
      </trkpt>
      <trkpt lat="47.65027" lon="6.01999">
        <ele>216.63</ele>
        <time>2022-01-09T10:33:41Z</time>
      </trkpt>
      <trkpt lat="47.65047" lon="6.02008">
        <ele>216.74</ele>
        <time>2022-01-09T10:33:45Z</time>
      </trkpt>
      <trkpt lat="47.65068" lon="6.02014">
        <ele>216.54</ele>
        <time>2022-01-09T10:33:49Z</time>
      </trkpt>
      <trkpt lat="47.65089" lon="6.02019">
        <ele>216.4</ele>
        <time>2022-01-09T10:33:53Z</time>
      </trkpt>
      <trkpt lat="47.6511" lon="6.02024">
        <ele>216.72</ele>
        <time>2022-01-09T10:33:57Z</time>
      </trkpt>
      <trkpt lat="47.65131" lon="6.02031">
        <ele>216.41</ele>
        <time>2022-01-09T10:34:01Z</time>
      </trkpt>
      <trkpt lat="47.65152" lon="6.02037">
        <ele>216.31</ele>
        <time>2022-01-09T10:34:05Z</time>
      </trkpt>
      <trkpt lat="47.65172" lon="6.02042">
        <ele>216.7</ele>
        <time>2022-01-09T10:34:09Z</time>
      </trkpt>
      <trkpt lat="47.65194" lon="6.02048">
        <ele>216.42</ele>
        <time>2022-01-09T10:34:13Z</time>
      </trkpt>
      <trkpt lat="47.65215" lon="6.0205">
        <ele>216</ele>
        <time>2022-01-09T10:34:17Z</time>
      </trkpt>
      <trkpt lat="47.65237" lon="6.02051">
        <ele>215.42</ele>
        <time>2022-01-09T10:34:21Z</time>
      </trkpt>
      <trkpt lat="47.65259" lon="6.02049">
        <ele>215.55</ele>
        <time>2022-01-09T10:34:25Z</time>
      </trkpt>
      <trkpt lat="47.65281" lon="6.02045">
        <ele>215.17</ele>
        <time>2022-01-09T10:34:29Z</time>
      </trkpt>
      <trkpt lat="47.65304" lon="6.02039">
        <ele>214.77</ele>
        <time>2022-01-09T10:34:33Z</time>
      </trkpt>
      <trkpt lat="47.65325" lon="6.02029">
        <ele>214.26</ele>
        <time>2022-01-09T10:34:37Z</time>
      </trkpt>
      <trkpt lat="47.65347" lon="6.02019">
        <ele>213.59</ele>
        <time>2022-01-09T10:34:41Z</time>
      </trkpt>
      <trkpt lat="47.65368" lon="6.02006">
        <ele>212.87</ele>
        <time>2022-01-09T10:34:45Z</time>
      </trkpt>
      <trkpt lat="47.65388" lon="6.01992">
        <ele>212.56</ele>
        <time>2022-01-09T10:34:49Z</time>
      </trkpt>
      <trkpt lat="47.65407" lon="6.01977">
        <ele>213.15</ele>
        <time>2022-01-09T10:34:53Z</time>
      </trkpt>
      <trkpt lat="47.65426" lon="6.01961">
        <ele>212.62</ele>
        <time>2022-01-09T10:34:57Z</time>
      </trkpt>
      <trkpt lat="47.65446" lon="6.01946">
        <ele>212.75</ele>
        <time>2022-01-09T10:35:01Z</time>
      </trkpt>
      <trkpt lat="47.65464" lon="6.01933">
        <ele>213.13</ele>
        <time>2022-01-09T10:35:05Z</time>
      </trkpt>
      <trkpt lat="47.6548" lon="6.01914">
        <ele>212.44</ele>
        <time>2022-01-09T10:35:09Z</time>
      </trkpt>
      <trkpt lat="47.65494" lon="6.01896">
        <ele>212.2</ele>
        <time>2022-01-09T10:35:13Z</time>
      </trkpt>
      <trkpt lat="47.65509" lon="6.0188">
        <ele>211.68</ele>
        <time>2022-01-09T10:35:20Z</time>
      </trkpt>
      <trkpt lat="47.65517" lon="6.01854">
        <ele>211.55</ele>
        <time>2022-01-09T10:35:28Z</time>
      </trkpt>
      <trkpt lat="47.6553" lon="6.01829">
        <ele>211.78</ele>
        <time>2022-01-09T10:35:33Z</time>
      </trkpt>
      <trkpt lat="47.6555" lon="6.01812">
        <ele>212.14</ele>
        <time>2022-01-09T10:35:37Z</time>
      </trkpt>
      <trkpt lat="47.65566" lon="6.01797">
        <ele>212.14</ele>
        <time>2022-01-09T10:35:40Z</time>
      </trkpt>
      <trkpt lat="47.65583" lon="6.01772">
        <ele>211.36</ele>
        <time>2022-01-09T10:35:44Z</time>
      </trkpt>
      <trkpt lat="47.65597" lon="6.01748">
        <ele>210.95</ele>
        <time>2022-01-09T10:35:48Z</time>
      </trkpt>
      <trkpt lat="47.65609" lon="6.01727">
        <ele>211.26</ele>
        <time>2022-01-09T10:35:52Z</time>
      </trkpt>
      <trkpt lat="47.65622" lon="6.01707">
        <ele>212.19</ele>
        <time>2022-01-09T10:35:56Z</time>
      </trkpt>
      <trkpt lat="47.6564" lon="6.01689">
        <ele>213.39</ele>
        <time>2022-01-09T10:36:01Z</time>
      </trkpt>
      <trkpt lat="47.65656" lon="6.01675">
        <ele>214.15</ele>
        <time>2022-01-09T10:36:05Z</time>
      </trkpt>
      <trkpt lat="47.65673" lon="6.0169">
        <ele>215.12</ele>
        <time>2022-01-09T10:36:10Z</time>
      </trkpt>
      <trkpt lat="47.65693" lon="6.01689">
        <ele>215.94</ele>
        <time>2022-01-09T10:36:14Z</time>
      </trkpt>
      <trkpt lat="47.65711" lon="6.0168">
        <ele>216.96</ele>
        <time>2022-01-09T10:36:18Z</time>
      </trkpt>
      <trkpt lat="47.65732" lon="6.01668">
        <ele>216.76</ele>
        <time>2022-01-09T10:36:23Z</time>
      </trkpt>
      <trkpt lat="47.65751" lon="6.01657">
        <ele>216.55</ele>
        <time>2022-01-09T10:36:28Z</time>
      </trkpt>
      <trkpt lat="47.6577" lon="6.0164">
        <ele>215.18</ele>
        <time>2022-01-09T10:36:33Z</time>
      </trkpt>
      <trkpt lat="47.65787" lon="6.01627">
        <ele>213.42</ele>
        <time>2022-01-09T10:36:37Z</time>
      </trkpt>
      <trkpt lat="47.65803" lon="6.01614">
        <ele>213.04</ele>
        <time>2022-01-09T10:36:41Z</time>
      </trkpt>
      <trkpt lat="47.65819" lon="6.016">
        <ele>213.01</ele>
        <time>2022-01-09T10:36:46Z</time>
      </trkpt>
      <trkpt lat="47.65834" lon="6.01586">
        <ele>212.5</ele>
        <time>2022-01-09T10:36:50Z</time>
      </trkpt>
      <trkpt lat="47.65851" lon="6.01572">
        <ele>211.51</ele>
        <time>2022-01-09T10:36:53Z</time>
      </trkpt>
      <trkpt lat="47.65871" lon="6.01559">
        <ele>210.89</ele>
        <time>2022-01-09T10:36:57Z</time>
      </trkpt>
      <trkpt lat="47.6589" lon="6.01546">
        <ele>210.52</ele>
        <time>2022-01-09T10:37:01Z</time>
      </trkpt>
      <trkpt lat="47.65909" lon="6.01535">
        <ele>210.99</ele>
        <time>2022-01-09T10:37:05Z</time>
      </trkpt>
      <trkpt lat="47.65928" lon="6.01527">
        <ele>211.3</ele>
        <time>2022-01-09T10:37:09Z</time>
      </trkpt>
      <trkpt lat="47.65949" lon="6.01519">
        <ele>211.38</ele>
        <time>2022-01-09T10:37:13Z</time>
      </trkpt>
      <trkpt lat="47.65971" lon="6.01512">
        <ele>211.79</ele>
        <time>2022-01-09T10:37:17Z</time>
      </trkpt>
      <trkpt lat="47.65993" lon="6.01505">
        <ele>213.16</ele>
        <time>2022-01-09T10:37:21Z</time>
      </trkpt>
      <trkpt lat="47.66016" lon="6.01499">
        <ele>214.41</ele>
        <time>2022-01-09T10:37:25Z</time>
      </trkpt>
      <trkpt lat="47.66037" lon="6.01491">
        <ele>214.9</ele>
        <time>2022-01-09T10:37:29Z</time>
      </trkpt>
      <trkpt lat="47.66058" lon="6.01485">
        <ele>215.69</ele>
        <time>2022-01-09T10:37:33Z</time>
      </trkpt>
      <trkpt lat="47.66081" lon="6.01481">
        <ele>216.31</ele>
        <time>2022-01-09T10:37:37Z</time>
      </trkpt>
      <trkpt lat="47.66101" lon="6.01477">
        <ele>216.57</ele>
        <time>2022-01-09T10:37:41Z</time>
      </trkpt>
      <trkpt lat="47.66121" lon="6.01472">
        <ele>216.83</ele>
        <time>2022-01-09T10:37:45Z</time>
      </trkpt>
      <trkpt lat="47.66141" lon="6.01468">
        <ele>217.41</ele>
        <time>2022-01-09T10:37:49Z</time>
      </trkpt>
      <trkpt lat="47.66163" lon="6.01466">
        <ele>215.59</ele>
        <time>2022-01-09T10:37:53Z</time>
      </trkpt>
      <trkpt lat="47.66185" lon="6.01467">
        <ele>215.18</ele>
        <time>2022-01-09T10:37:57Z</time>
      </trkpt>
      <trkpt lat="47.66207" lon="6.01467">
        <ele>214.87</ele>
        <time>2022-01-09T10:38:01Z</time>
      </trkpt>
      <trkpt lat="47.66229" lon="6.01468">
        <ele>215.46</ele>
        <time>2022-01-09T10:38:05Z</time>
      </trkpt>
      <trkpt lat="47.66247" lon="6.01473">
        <ele>215.86</ele>
        <time>2022-01-09T10:38:08Z</time>
      </trkpt>
      <trkpt lat="47.66269" lon="6.01479">
        <ele>216.28</ele>
        <time>2022-01-09T10:38:12Z</time>
      </trkpt>
      <trkpt lat="47.66291" lon="6.01484">
        <ele>217.08</ele>
        <time>2022-01-09T10:38:16Z</time>
      </trkpt>
      <trkpt lat="47.66312" lon="6.01492">
        <ele>217.45</ele>
        <time>2022-01-09T10:38:20Z</time>
      </trkpt>
      <trkpt lat="47.66332" lon="6.01503">
        <ele>217.94</ele>
        <time>2022-01-09T10:38:24Z</time>
      </trkpt>
      <trkpt lat="47.66353" lon="6.01515">
        <ele>217.74</ele>
        <time>2022-01-09T10:38:28Z</time>
      </trkpt>
      <trkpt lat="47.66373" lon="6.01529">
        <ele>217.61</ele>
        <time>2022-01-09T10:38:32Z</time>
      </trkpt>
      <trkpt lat="47.66394" lon="6.01542">
        <ele>217.57</ele>
        <time>2022-01-09T10:38:36Z</time>
      </trkpt>
      <trkpt lat="47.66415" lon="6.01556">
        <ele>217.16</ele>
        <time>2022-01-09T10:38:40Z</time>
      </trkpt>
      <trkpt lat="47.66436" lon="6.01571">
        <ele>216.74</ele>
        <time>2022-01-09T10:38:44Z</time>
      </trkpt>
      <trkpt lat="47.66456" lon="6.01587">
        <ele>217.18</ele>
        <time>2022-01-09T10:38:48Z</time>
      </trkpt>
      <trkpt lat="47.66476" lon="6.01604">
        <ele>216.92</ele>
        <time>2022-01-09T10:38:52Z</time>
      </trkpt>
      <trkpt lat="47.66496" lon="6.01622">
        <ele>216.59</ele>
        <time>2022-01-09T10:38:56Z</time>
      </trkpt>
      <trkpt lat="47.66516" lon="6.0164">
        <ele>216.95</ele>
        <time>2022-01-09T10:39:00Z</time>
      </trkpt>
      <trkpt lat="47.66535" lon="6.01659">
        <ele>217.14</ele>
        <time>2022-01-09T10:39:04Z</time>
      </trkpt>
      <trkpt lat="47.66552" lon="6.01676">
        <ele>217.7</ele>
        <time>2022-01-09T10:39:08Z</time>
      </trkpt>
      <trkpt lat="47.66571" lon="6.01694">
        <ele>217.79</ele>
        <time>2022-01-09T10:39:12Z</time>
      </trkpt>
      <trkpt lat="47.66589" lon="6.01711">
        <ele>217.95</ele>
        <time>2022-01-09T10:39:16Z</time>
      </trkpt>
      <trkpt lat="47.66608" lon="6.0173">
        <ele>218.51</ele>
        <time>2022-01-09T10:39:20Z</time>
      </trkpt>
      <trkpt lat="47.66625" lon="6.01753">
        <ele>218.24</ele>
        <time>2022-01-09T10:39:24Z</time>
      </trkpt>
      <trkpt lat="47.66642" lon="6.01777">
        <ele>217.95</ele>
        <time>2022-01-09T10:39:28Z</time>
      </trkpt>
      <trkpt lat="47.66652" lon="6.018">
        <ele>218.14</ele>
        <time>2022-01-09T10:39:31Z</time>
      </trkpt>
      <trkpt lat="47.66661" lon="6.01823">
        <ele>219.02</ele>
        <time>2022-01-09T10:39:34Z</time>
      </trkpt>
      <trkpt lat="47.66674" lon="6.01849">
        <ele>218.94</ele>
        <time>2022-01-09T10:39:38Z</time>
      </trkpt>
      <trkpt lat="47.66687" lon="6.01875">
        <ele>218.33</ele>
        <time>2022-01-09T10:39:42Z</time>
      </trkpt>
      <trkpt lat="47.66702" lon="6.01901">
        <ele>218.07</ele>
        <time>2022-01-09T10:39:46Z</time>
      </trkpt>
      <trkpt lat="47.66715" lon="6.01926">
        <ele>219.99</ele>
        <time>2022-01-09T10:39:50Z</time>
      </trkpt>
      <trkpt lat="47.66727" lon="6.01956">
        <ele>221.41</ele>
        <time>2022-01-09T10:39:54Z</time>
      </trkpt>
      <trkpt lat="47.66734" lon="6.01981">
        <ele>221.66</ele>
        <time>2022-01-09T10:39:57Z</time>
      </trkpt>
      <trkpt lat="47.6674" lon="6.02015">
        <ele>221.35</ele>
        <time>2022-01-09T10:40:01Z</time>
      </trkpt>
      <trkpt lat="47.66749" lon="6.02048">
        <ele>220.67</ele>
        <time>2022-01-09T10:40:05Z</time>
      </trkpt>
      <trkpt lat="47.66757" lon="6.02075">
        <ele>219.57</ele>
        <time>2022-01-09T10:40:08Z</time>
      </trkpt>
      <trkpt lat="47.66763" lon="6.02105">
        <ele>218.82</ele>
        <time>2022-01-09T10:40:12Z</time>
      </trkpt>
      <trkpt lat="47.66768" lon="6.02132">
        <ele>218.05</ele>
        <time>2022-01-09T10:40:15Z</time>
      </trkpt>
      <trkpt lat="47.6678" lon="6.02161">
        <ele>217.44</ele>
        <time>2022-01-09T10:40:19Z</time>
      </trkpt>
      <trkpt lat="47.66787" lon="6.02188">
        <ele>217.48</ele>
        <time>2022-01-09T10:40:23Z</time>
      </trkpt>
      <trkpt lat="47.66795" lon="6.0222">
        <ele>217.42</ele>
        <time>2022-01-09T10:40:27Z</time>
      </trkpt>
      <trkpt lat="47.66802" lon="6.02248">
        <ele>217.76</ele>
        <time>2022-01-09T10:40:31Z</time>
      </trkpt>
      <trkpt lat="47.66812" lon="6.02278">
        <ele>217.89</ele>
        <time>2022-01-09T10:40:35Z</time>
      </trkpt>
      <trkpt lat="47.66822" lon="6.02301">
        <ele>217.21</ele>
        <time>2022-01-09T10:40:38Z</time>
      </trkpt>
      <trkpt lat="47.66831" lon="6.02323">
        <ele>216.86</ele>
        <time>2022-01-09T10:40:41Z</time>
      </trkpt>
      <trkpt lat="47.66841" lon="6.02348">
        <ele>219.32</ele>
        <time>2022-01-09T10:40:45Z</time>
      </trkpt>
      <trkpt lat="47.66854" lon="6.0237">
        <ele>220.67</ele>
        <time>2022-01-09T10:40:53Z</time>
      </trkpt>
      <trkpt lat="47.66864" lon="6.02392">
        <ele>220.05</ele>
        <time>2022-01-09T10:41:09Z</time>
      </trkpt>
      <trkpt lat="47.66875" lon="6.02413">
        <ele>220.41</ele>
        <time>2022-01-09T10:41:13Z</time>
      </trkpt>
      <trkpt lat="47.66887" lon="6.02437">
        <ele>220.42</ele>
        <time>2022-01-09T10:41:17Z</time>
      </trkpt>
      <trkpt lat="47.66902" lon="6.02463">
        <ele>220.27</ele>
        <time>2022-01-09T10:41:21Z</time>
      </trkpt>
      <trkpt lat="47.66913" lon="6.02485">
        <ele>219.98</ele>
        <time>2022-01-09T10:41:24Z</time>
      </trkpt>
      <trkpt lat="47.66929" lon="6.02512">
        <ele>219.94</ele>
        <time>2022-01-09T10:41:28Z</time>
      </trkpt>
      <trkpt lat="47.66941" lon="6.02532">
        <ele>220.07</ele>
        <time>2022-01-09T10:41:31Z</time>
      </trkpt>
      <trkpt lat="47.66954" lon="6.02554">
        <ele>219.84</ele>
        <time>2022-01-09T10:41:34Z</time>
      </trkpt>
      <trkpt lat="47.66966" lon="6.02576">
        <ele>219.15</ele>
        <time>2022-01-09T10:41:37Z</time>
      </trkpt>
      <trkpt lat="47.66978" lon="6.02598">
        <ele>219.06</ele>
        <time>2022-01-09T10:41:40Z</time>
      </trkpt>
      <trkpt lat="47.66991" lon="6.02618">
        <ele>219.45</ele>
        <time>2022-01-09T10:41:43Z</time>
      </trkpt>
      <trkpt lat="47.67006" lon="6.02644">
        <ele>219</ele>
        <time>2022-01-09T10:41:47Z</time>
      </trkpt>
      <trkpt lat="47.6702" lon="6.02666">
        <ele>218.79</ele>
        <time>2022-01-09T10:41:50Z</time>
      </trkpt>
      <trkpt lat="47.67038" lon="6.02688">
        <ele>218.47</ele>
        <time>2022-01-09T10:41:54Z</time>
      </trkpt>
      <trkpt lat="47.67053" lon="6.02703">
        <ele>218.79</ele>
        <time>2022-01-09T10:41:57Z</time>
      </trkpt>
      <trkpt lat="47.67069" lon="6.02721">
        <ele>219.09</ele>
        <time>2022-01-09T10:42:00Z</time>
      </trkpt>
      <trkpt lat="47.67084" lon="6.02739">
        <ele>218.08</ele>
        <time>2022-01-09T10:42:03Z</time>
      </trkpt>
      <trkpt lat="47.67102" lon="6.02757">
        <ele>217.48</ele>
        <time>2022-01-09T10:42:07Z</time>
      </trkpt>
      <trkpt lat="47.67119" lon="6.02776">
        <ele>217.12</ele>
        <time>2022-01-09T10:42:11Z</time>
      </trkpt>
      <trkpt lat="47.67134" lon="6.02807">
        <ele>217.65</ele>
        <time>2022-01-09T10:42:14Z</time>
      </trkpt>
      <trkpt lat="47.67151" lon="6.02839">
        <ele>218.33</ele>
        <time>2022-01-09T10:42:17Z</time>
      </trkpt>
      <trkpt lat="47.67164" lon="6.02866">
        <ele>218.47</ele>
        <time>2022-01-09T10:42:20Z</time>
      </trkpt>
      <trkpt lat="47.67176" lon="6.02893">
        <ele>217.78</ele>
        <time>2022-01-09T10:42:23Z</time>
      </trkpt>
      <trkpt lat="47.67185" lon="6.02918">
        <ele>217.09</ele>
        <time>2022-01-09T10:42:26Z</time>
      </trkpt>
      <trkpt lat="47.67194" lon="6.02942">
        <ele>215.78</ele>
        <time>2022-01-09T10:42:29Z</time>
      </trkpt>
      <trkpt lat="47.67202" lon="6.02969">
        <ele>215.63</ele>
        <time>2022-01-09T10:42:32Z</time>
      </trkpt>
      <trkpt lat="47.6721" lon="6.02998">
        <ele>215.77</ele>
        <time>2022-01-09T10:42:35Z</time>
      </trkpt>
      <trkpt lat="47.67215" lon="6.03028">
        <ele>215.9</ele>
        <time>2022-01-09T10:42:38Z</time>
      </trkpt>
      <trkpt lat="47.67218" lon="6.03057">
        <ele>216.06</ele>
        <time>2022-01-09T10:42:41Z</time>
      </trkpt>
      <trkpt lat="47.67221" lon="6.03086">
        <ele>216.48</ele>
        <time>2022-01-09T10:42:44Z</time>
      </trkpt>
      <trkpt lat="47.67224" lon="6.03114">
        <ele>216.5</ele>
        <time>2022-01-09T10:42:47Z</time>
      </trkpt>
      <trkpt lat="47.67227" lon="6.03142">
        <ele>216.1</ele>
        <time>2022-01-09T10:42:50Z</time>
      </trkpt>
      <trkpt lat="47.6723" lon="6.0317">
        <ele>215.81</ele>
        <time>2022-01-09T10:42:53Z</time>
      </trkpt>
      <trkpt lat="47.67232" lon="6.03197">
        <ele>215.58</ele>
        <time>2022-01-09T10:42:56Z</time>
      </trkpt>
      <trkpt lat="47.67235" lon="6.03225">
        <ele>215.53</ele>
        <time>2022-01-09T10:42:59Z</time>
      </trkpt>
      <trkpt lat="47.67239" lon="6.03252">
        <ele>215.26</ele>
        <time>2022-01-09T10:43:02Z</time>
      </trkpt>
      <trkpt lat="47.67244" lon="6.03278">
        <ele>214.71</ele>
        <time>2022-01-09T10:43:05Z</time>
      </trkpt>
      <trkpt lat="47.67252" lon="6.03303">
        <ele>214.25</ele>
        <time>2022-01-09T10:43:08Z</time>
      </trkpt>
      <trkpt lat="47.67262" lon="6.03334">
        <ele>213.62</ele>
        <time>2022-01-09T10:43:12Z</time>
      </trkpt>
      <trkpt lat="47.6727" lon="6.03359">
        <ele>212.85</ele>
        <time>2022-01-09T10:43:15Z</time>
      </trkpt>
      <trkpt lat="47.67277" lon="6.03384">
        <ele>212.18</ele>
        <time>2022-01-09T10:43:18Z</time>
      </trkpt>
      <trkpt lat="47.67283" lon="6.0341">
        <ele>212.65</ele>
        <time>2022-01-09T10:43:21Z</time>
      </trkpt>
      <trkpt lat="47.6729" lon="6.03437">
        <ele>213.59</ele>
        <time>2022-01-09T10:43:24Z</time>
      </trkpt>
      <trkpt lat="47.67296" lon="6.03464">
        <ele>213.56</ele>
        <time>2022-01-09T10:43:27Z</time>
      </trkpt>
      <trkpt lat="47.67302" lon="6.03491">
        <ele>213.85</ele>
        <time>2022-01-09T10:43:30Z</time>
      </trkpt>
      <trkpt lat="47.67308" lon="6.03518">
        <ele>214.1</ele>
        <time>2022-01-09T10:43:33Z</time>
      </trkpt>
      <trkpt lat="47.67316" lon="6.0355">
        <ele>214.61</ele>
        <time>2022-01-09T10:43:37Z</time>
      </trkpt>
      <trkpt lat="47.67324" lon="6.03582">
        <ele>214.49</ele>
        <time>2022-01-09T10:43:41Z</time>
      </trkpt>
      <trkpt lat="47.6733" lon="6.03608">
        <ele>214.06</ele>
        <time>2022-01-09T10:43:44Z</time>
      </trkpt>
      <trkpt lat="47.6734" lon="6.0364">
        <ele>212.98</ele>
        <time>2022-01-09T10:43:48Z</time>
      </trkpt>
      <trkpt lat="47.67347" lon="6.03666">
        <ele>211.3</ele>
        <time>2022-01-09T10:43:51Z</time>
      </trkpt>
      <trkpt lat="47.67355" lon="6.03692">
        <ele>210.21</ele>
        <time>2022-01-09T10:43:54Z</time>
      </trkpt>
      <trkpt lat="47.67364" lon="6.03716">
        <ele>209.96</ele>
        <time>2022-01-09T10:43:57Z</time>
      </trkpt>
      <trkpt lat="47.67374" lon="6.03737">
        <ele>210.38</ele>
        <time>2022-01-09T10:44:00Z</time>
      </trkpt>
      <trkpt lat="47.6739" lon="6.03763">
        <ele>211.37</ele>
        <time>2022-01-09T10:44:04Z</time>
      </trkpt>
      <trkpt lat="47.67404" lon="6.0379">
        <ele>212.29</ele>
        <time>2022-01-09T10:44:08Z</time>
      </trkpt>
      <trkpt lat="47.67417" lon="6.0381">
        <ele>213.12</ele>
        <time>2022-01-09T10:44:12Z</time>
      </trkpt>
      <trkpt lat="47.67431" lon="6.03838">
        <ele>214.02</ele>
        <time>2022-01-09T10:44:16Z</time>
      </trkpt>
      <trkpt lat="47.67444" lon="6.03864">
        <ele>214.39</ele>
        <time>2022-01-09T10:44:19Z</time>
      </trkpt>
      <trkpt lat="47.67458" lon="6.03886">
        <ele>214.99</ele>
        <time>2022-01-09T10:44:22Z</time>
      </trkpt>
      <trkpt lat="47.67473" lon="6.03906">
        <ele>215.28</ele>
        <time>2022-01-09T10:44:25Z</time>
      </trkpt>
      <trkpt lat="47.67485" lon="6.03927">
        <ele>215.7</ele>
        <time>2022-01-09T10:44:28Z</time>
      </trkpt>
      <trkpt lat="47.67497" lon="6.03948">
        <ele>216.13</ele>
        <time>2022-01-09T10:44:31Z</time>
      </trkpt>
      <trkpt lat="47.6751" lon="6.0397">
        <ele>217.39</ele>
        <time>2022-01-09T10:44:34Z</time>
      </trkpt>
      <trkpt lat="47.67527" lon="6.03986">
        <ele>217.63</ele>
        <time>2022-01-09T10:44:37Z</time>
      </trkpt>
      <trkpt lat="47.67545" lon="6.0399">
        <ele>218.02</ele>
        <time>2022-01-09T10:44:40Z</time>
      </trkpt>
      <trkpt lat="47.67563" lon="6.03979">
        <ele>219.04</ele>
        <time>2022-01-09T10:44:43Z</time>
      </trkpt>
      <trkpt lat="47.67579" lon="6.03965">
        <ele>220</ele>
        <time>2022-01-09T10:44:46Z</time>
      </trkpt>
      <trkpt lat="47.67593" lon="6.03948">
        <ele>219.57</ele>
        <time>2022-01-09T10:44:49Z</time>
      </trkpt>
      <trkpt lat="47.67611" lon="6.03927">
        <ele>218.51</ele>
        <time>2022-01-09T10:44:53Z</time>
      </trkpt>
      <trkpt lat="47.67629" lon="6.03907">
        <ele>218.44</ele>
        <time>2022-01-09T10:44:57Z</time>
      </trkpt>
      <trkpt lat="47.67645" lon="6.03886">
        <ele>218.11</ele>
        <time>2022-01-09T10:45:01Z</time>
      </trkpt>
      <trkpt lat="47.67661" lon="6.03866">
        <ele>216.8</ele>
        <time>2022-01-09T10:45:05Z</time>
      </trkpt>
      <trkpt lat="47.67678" lon="6.03846">
        <ele>216.64</ele>
        <time>2022-01-09T10:45:09Z</time>
      </trkpt>
      <trkpt lat="47.67696" lon="6.03826">
        <ele>216.56</ele>
        <time>2022-01-09T10:45:13Z</time>
      </trkpt>
      <trkpt lat="47.67714" lon="6.0381">
        <ele>216.86</ele>
        <time>2022-01-09T10:45:17Z</time>
      </trkpt>
      <trkpt lat="47.67731" lon="6.03794">
        <ele>217.34</ele>
        <time>2022-01-09T10:45:21Z</time>
      </trkpt>
      <trkpt lat="47.67747" lon="6.03778">
        <ele>217.84</ele>
        <time>2022-01-09T10:45:25Z</time>
      </trkpt>
      <trkpt lat="47.67765" lon="6.03762">
        <ele>218.2</ele>
        <time>2022-01-09T10:45:29Z</time>
      </trkpt>
      <trkpt lat="47.67783" lon="6.03746">
        <ele>218.65</ele>
        <time>2022-01-09T10:45:33Z</time>
      </trkpt>
      <trkpt lat="47.67802" lon="6.03728">
        <ele>219.33</ele>
        <time>2022-01-09T10:45:37Z</time>
      </trkpt>
      <trkpt lat="47.6782" lon="6.03712">
        <ele>219.17</ele>
        <time>2022-01-09T10:45:41Z</time>
      </trkpt>
      <trkpt lat="47.67839" lon="6.03698">
        <ele>219.73</ele>
        <time>2022-01-09T10:45:45Z</time>
      </trkpt>
      <trkpt lat="47.67858" lon="6.03685">
        <ele>220.54</ele>
        <time>2022-01-09T10:45:49Z</time>
      </trkpt>
      <trkpt lat="47.67878" lon="6.03673">
        <ele>220.26</ele>
        <time>2022-01-09T10:45:53Z</time>
      </trkpt>
      <trkpt lat="47.67899" lon="6.03661">
        <ele>219.46</ele>
        <time>2022-01-09T10:45:57Z</time>
      </trkpt>
      <trkpt lat="47.67919" lon="6.03648">
        <ele>219.12</ele>
        <time>2022-01-09T10:46:01Z</time>
      </trkpt>
      <trkpt lat="47.67939" lon="6.03637">
        <ele>218.86</ele>
        <time>2022-01-09T10:46:05Z</time>
      </trkpt>
      <trkpt lat="47.67959" lon="6.03627">
        <ele>218.6</ele>
        <time>2022-01-09T10:46:09Z</time>
      </trkpt>
      <trkpt lat="47.6798" lon="6.03614">
        <ele>217.88</ele>
        <time>2022-01-09T10:46:13Z</time>
      </trkpt>
      <trkpt lat="47.68001" lon="6.03599">
        <ele>216.79</ele>
        <time>2022-01-09T10:46:17Z</time>
      </trkpt>
      <trkpt lat="47.68021" lon="6.03583">
        <ele>216.6</ele>
        <time>2022-01-09T10:46:21Z</time>
      </trkpt>
      <trkpt lat="47.68041" lon="6.03568">
        <ele>217</ele>
        <time>2022-01-09T10:46:25Z</time>
      </trkpt>
      <trkpt lat="47.68059" lon="6.03567">
        <ele>217.43</ele>
        <time>2022-01-09T10:46:28Z</time>
      </trkpt>
      <trkpt lat="47.68077" lon="6.03569">
        <ele>217.62</ele>
        <time>2022-01-09T10:46:31Z</time>
      </trkpt>
      <trkpt lat="47.68101" lon="6.03573">
        <ele>218.38</ele>
        <time>2022-01-09T10:46:35Z</time>
      </trkpt>
      <trkpt lat="47.68124" lon="6.03577">
        <ele>219</ele>
        <time>2022-01-09T10:46:39Z</time>
      </trkpt>
      <trkpt lat="47.68147" lon="6.03575">
        <ele>219.42</ele>
        <time>2022-01-09T10:46:43Z</time>
      </trkpt>
      <trkpt lat="47.6817" lon="6.03569">
        <ele>219.67</ele>
        <time>2022-01-09T10:46:47Z</time>
      </trkpt>
      <trkpt lat="47.68193" lon="6.03564">
        <ele>220.25</ele>
        <time>2022-01-09T10:46:51Z</time>
      </trkpt>
      <trkpt lat="47.68217" lon="6.03562">
        <ele>220.35</ele>
        <time>2022-01-09T10:46:55Z</time>
      </trkpt>
      <trkpt lat="47.68235" lon="6.03562">
        <ele>220.38</ele>
        <time>2022-01-09T10:46:58Z</time>
      </trkpt>
      <trkpt lat="47.68253" lon="6.03564">
        <ele>220.43</ele>
        <time>2022-01-09T10:47:01Z</time>
      </trkpt>
      <trkpt lat="47.68276" lon="6.03566">
        <ele>220.74</ele>
        <time>2022-01-09T10:47:05Z</time>
      </trkpt>
      <trkpt lat="47.68294" lon="6.03568">
        <ele>221.11</ele>
        <time>2022-01-09T10:47:08Z</time>
      </trkpt>
      <trkpt lat="47.68318" lon="6.03573">
        <ele>221.38</ele>
        <time>2022-01-09T10:47:12Z</time>
      </trkpt>
      <trkpt lat="47.68337" lon="6.03577">
        <ele>221.39</ele>
        <time>2022-01-09T10:47:15Z</time>
      </trkpt>
      <trkpt lat="47.68355" lon="6.03582">
        <ele>221.44</ele>
        <time>2022-01-09T10:47:18Z</time>
      </trkpt>
      <trkpt lat="47.68373" lon="6.03593">
        <ele>221.95</ele>
        <time>2022-01-09T10:47:21Z</time>
      </trkpt>
      <trkpt lat="47.68392" lon="6.03603">
        <ele>221.9</ele>
        <time>2022-01-09T10:47:24Z</time>
      </trkpt>
      <trkpt lat="47.68414" lon="6.03613">
        <ele>221.74</ele>
        <time>2022-01-09T10:47:28Z</time>
      </trkpt>
      <trkpt lat="47.68436" lon="6.03621">
        <ele>221.76</ele>
        <time>2022-01-09T10:47:32Z</time>
      </trkpt>
      <trkpt lat="47.68455" lon="6.03614">
        <ele>220.26</ele>
        <time>2022-01-09T10:47:36Z</time>
      </trkpt>
      <trkpt lat="47.68475" lon="6.03612">
        <ele>219.55</ele>
        <time>2022-01-09T10:47:40Z</time>
      </trkpt>
      <trkpt lat="47.68496" lon="6.03619">
        <ele>219.15</ele>
        <time>2022-01-09T10:47:44Z</time>
      </trkpt>
      <trkpt lat="47.68518" lon="6.03628">
        <ele>219.67</ele>
        <time>2022-01-09T10:47:48Z</time>
      </trkpt>
      <trkpt lat="47.6854" lon="6.03636">
        <ele>220.03</ele>
        <time>2022-01-09T10:47:52Z</time>
      </trkpt>
      <trkpt lat="47.68562" lon="6.03641">
        <ele>219.93</ele>
        <time>2022-01-09T10:47:56Z</time>
      </trkpt>
      <trkpt lat="47.68584" lon="6.03642">
        <ele>219.74</ele>
        <time>2022-01-09T10:48:00Z</time>
      </trkpt>
      <trkpt lat="47.68603" lon="6.03633">
        <ele>220.1</ele>
        <time>2022-01-09T10:48:04Z</time>
      </trkpt>
      <trkpt lat="47.68622" lon="6.03622">
        <ele>220</ele>
        <time>2022-01-09T10:48:08Z</time>
      </trkpt>
      <trkpt lat="47.68645" lon="6.03625">
        <ele>219.3</ele>
        <time>2022-01-09T10:48:12Z</time>
      </trkpt>
      <trkpt lat="47.68663" lon="6.03628">
        <ele>218.68</ele>
        <time>2022-01-09T10:48:15Z</time>
      </trkpt>
      <trkpt lat="47.68681" lon="6.03631">
        <ele>218.94</ele>
        <time>2022-01-09T10:48:18Z</time>
      </trkpt>
      <trkpt lat="47.687" lon="6.03634">
        <ele>219.07</ele>
        <time>2022-01-09T10:48:21Z</time>
      </trkpt>
      <trkpt lat="47.68718" lon="6.03638">
        <ele>218.93</ele>
        <time>2022-01-09T10:48:24Z</time>
      </trkpt>
      <trkpt lat="47.68737" lon="6.03642">
        <ele>218.65</ele>
        <time>2022-01-09T10:48:27Z</time>
      </trkpt>
      <trkpt lat="47.68756" lon="6.03647">
        <ele>219.06</ele>
        <time>2022-01-09T10:48:30Z</time>
      </trkpt>
      <trkpt lat="47.68775" lon="6.03652">
        <ele>219.95</ele>
        <time>2022-01-09T10:48:33Z</time>
      </trkpt>
      <trkpt lat="47.68798" lon="6.03652">
        <ele>221.22</ele>
        <time>2022-01-09T10:48:37Z</time>
      </trkpt>
      <trkpt lat="47.68819" lon="6.0365">
        <ele>221.47</ele>
        <time>2022-01-09T10:48:41Z</time>
      </trkpt>
      <trkpt lat="47.68843" lon="6.03652">
        <ele>221.91</ele>
        <time>2022-01-09T10:48:45Z</time>
      </trkpt>
      <trkpt lat="47.68861" lon="6.03652">
        <ele>222.01</ele>
        <time>2022-01-09T10:48:48Z</time>
      </trkpt>
      <trkpt lat="47.68885" lon="6.03653">
        <ele>221.3</ele>
        <time>2022-01-09T10:48:52Z</time>
      </trkpt>
      <trkpt lat="47.68908" lon="6.03658">
        <ele>220.54</ele>
        <time>2022-01-09T10:48:56Z</time>
      </trkpt>
      <trkpt lat="47.68931" lon="6.03666">
        <ele>221.11</ele>
        <time>2022-01-09T10:49:00Z</time>
      </trkpt>
      <trkpt lat="47.68949" lon="6.03677">
        <ele>220.98</ele>
        <time>2022-01-09T10:49:03Z</time>
      </trkpt>
      <trkpt lat="47.68966" lon="6.03689">
        <ele>220.61</ele>
        <time>2022-01-09T10:49:06Z</time>
      </trkpt>
      <trkpt lat="47.68984" lon="6.03703">
        <ele>220.36</ele>
        <time>2022-01-09T10:49:09Z</time>
      </trkpt>
      <trkpt lat="47.69002" lon="6.03715">
        <ele>220.51</ele>
        <time>2022-01-09T10:49:12Z</time>
      </trkpt>
      <trkpt lat="47.6902" lon="6.03729">
        <ele>221.21</ele>
        <time>2022-01-09T10:49:15Z</time>
      </trkpt>
      <trkpt lat="47.69039" lon="6.03744">
        <ele>221.36</ele>
        <time>2022-01-09T10:49:18Z</time>
      </trkpt>
      <trkpt lat="47.69056" lon="6.03757">
        <ele>221.88</ele>
        <time>2022-01-09T10:49:21Z</time>
      </trkpt>
      <trkpt lat="47.69076" lon="6.03771">
        <ele>223.28</ele>
        <time>2022-01-09T10:49:25Z</time>
      </trkpt>
      <trkpt lat="47.69092" lon="6.03801">
        <ele>225.2</ele>
        <time>2022-01-09T10:49:41Z</time>
      </trkpt>
      <trkpt lat="47.69086" lon="6.03827">
        <ele>223.42</ele>
        <time>2022-01-09T10:49:53Z</time>
      </trkpt>
      <trkpt lat="47.69075" lon="6.03855">
        <ele>223.23</ele>
        <time>2022-01-09T10:49:58Z</time>
      </trkpt>
      <trkpt lat="47.69065" lon="6.03879">
        <ele>223.17</ele>
        <time>2022-01-09T10:50:02Z</time>
      </trkpt>
      <trkpt lat="47.69055" lon="6.03905">
        <ele>222.75</ele>
        <time>2022-01-09T10:50:06Z</time>
      </trkpt>
      <trkpt lat="47.69044" lon="6.03931">
        <ele>221.81</ele>
        <time>2022-01-09T10:50:10Z</time>
      </trkpt>
      <trkpt lat="47.69032" lon="6.0396">
        <ele>221</ele>
        <time>2022-01-09T10:50:14Z</time>
      </trkpt>
      <trkpt lat="47.69021" lon="6.03989">
        <ele>220.41</ele>
        <time>2022-01-09T10:50:18Z</time>
      </trkpt>
      <trkpt lat="47.69009" lon="6.04017">
        <ele>220.44</ele>
        <time>2022-01-09T10:50:22Z</time>
      </trkpt>
      <trkpt lat="47.68998" lon="6.0405">
        <ele>221.16</ele>
        <time>2022-01-09T10:50:26Z</time>
      </trkpt>
      <trkpt lat="47.68989" lon="6.04075">
        <ele>221.76</ele>
        <time>2022-01-09T10:50:29Z</time>
      </trkpt>
      <trkpt lat="47.6898" lon="6.04101">
        <ele>222.17</ele>
        <time>2022-01-09T10:50:32Z</time>
      </trkpt>
      <trkpt lat="47.6897" lon="6.04125">
        <ele>222.5</ele>
        <time>2022-01-09T10:50:35Z</time>
      </trkpt>
      <trkpt lat="47.6896" lon="6.04148">
        <ele>222.24</ele>
        <time>2022-01-09T10:50:38Z</time>
      </trkpt>
      <trkpt lat="47.68951" lon="6.04171">
        <ele>222.33</ele>
        <time>2022-01-09T10:50:41Z</time>
      </trkpt>
      <trkpt lat="47.68939" lon="6.042">
        <ele>222.79</ele>
        <time>2022-01-09T10:50:45Z</time>
      </trkpt>
      <trkpt lat="47.68926" lon="6.04226">
        <ele>223.62</ele>
        <time>2022-01-09T10:50:49Z</time>
      </trkpt>
      <trkpt lat="47.68914" lon="6.0425">
        <ele>223.75</ele>
        <time>2022-01-09T10:50:53Z</time>
      </trkpt>
      <trkpt lat="47.68904" lon="6.04276">
        <ele>223.45</ele>
        <time>2022-01-09T10:50:57Z</time>
      </trkpt>
      <trkpt lat="47.68895" lon="6.04303">
        <ele>223.48</ele>
        <time>2022-01-09T10:51:01Z</time>
      </trkpt>
      <trkpt lat="47.68882" lon="6.04328">
        <ele>223.19</ele>
        <time>2022-01-09T10:51:05Z</time>
      </trkpt>
      <trkpt lat="47.68869" lon="6.04348">
        <ele>223.43</ele>
        <time>2022-01-09T10:51:09Z</time>
      </trkpt>
      <trkpt lat="47.68871" lon="6.04378">
        <ele>225.55</ele>
        <time>2022-01-09T10:51:14Z</time>
      </trkpt>
      <trkpt lat="47.68866" lon="6.04404">
        <ele>227.85</ele>
        <time>2022-01-09T10:51:19Z</time>
      </trkpt>
      <trkpt lat="47.68861" lon="6.04431">
        <ele>229.57</ele>
        <time>2022-01-09T10:51:24Z</time>
      </trkpt>
      <trkpt lat="47.68857" lon="6.04458">
        <ele>230.93</ele>
        <time>2022-01-09T10:51:29Z</time>
      </trkpt>
      <trkpt lat="47.6885" lon="6.04484">
        <ele>230.93</ele>
        <time>2022-01-09T10:51:34Z</time>
      </trkpt>
      <trkpt lat="47.68841" lon="6.0451">
        <ele>229.64</ele>
        <time>2022-01-09T10:51:39Z</time>
      </trkpt>
      <trkpt lat="47.68837" lon="6.04537">
        <ele>230.02</ele>
        <time>2022-01-09T10:51:44Z</time>
      </trkpt>
      <trkpt lat="47.68834" lon="6.04564">
        <ele>230.73</ele>
        <time>2022-01-09T10:51:49Z</time>
      </trkpt>
      <trkpt lat="47.68832" lon="6.04592">
        <ele>231.18</ele>
        <time>2022-01-09T10:51:54Z</time>
      </trkpt>
      <trkpt lat="47.68828" lon="6.0462">
        <ele>230.54</ele>
        <time>2022-01-09T10:51:59Z</time>
      </trkpt>
      <trkpt lat="47.68825" lon="6.0465">
        <ele>230.12</ele>
        <time>2022-01-09T10:52:04Z</time>
      </trkpt>
      <trkpt lat="47.68823" lon="6.04679">
        <ele>230.55</ele>
        <time>2022-01-09T10:52:09Z</time>
      </trkpt>
      <trkpt lat="47.68822" lon="6.04707">
        <ele>230.74</ele>
        <time>2022-01-09T10:52:14Z</time>
      </trkpt>
      <trkpt lat="47.68825" lon="6.04737">
        <ele>230.42</ele>
        <time>2022-01-09T10:52:20Z</time>
      </trkpt>
      <trkpt lat="47.68823" lon="6.04768">
        <ele>230.89</ele>
        <time>2022-01-09T10:52:25Z</time>
      </trkpt>
      <trkpt lat="47.6882" lon="6.04795">
        <ele>231.92</ele>
        <time>2022-01-09T10:52:30Z</time>
      </trkpt>
      <trkpt lat="47.68823" lon="6.04822">
        <ele>232.47</ele>
        <time>2022-01-09T10:52:35Z</time>
      </trkpt>
      <trkpt lat="47.68817" lon="6.04849">
        <ele>233.69</ele>
        <time>2022-01-09T10:52:40Z</time>
      </trkpt>
      <trkpt lat="47.68809" lon="6.04875">
        <ele>235.08</ele>
        <time>2022-01-09T10:52:46Z</time>
      </trkpt>
      <trkpt lat="47.68789" lon="6.04879">
        <ele>234.37</ele>
        <time>2022-01-09T10:52:53Z</time>
      </trkpt>
      <trkpt lat="47.68777" lon="6.04854">
        <ele>232.78</ele>
        <time>2022-01-09T10:53:00Z</time>
      </trkpt>
      <trkpt lat="47.6877" lon="6.04826">
        <ele>232.4</ele>
        <time>2022-01-09T10:53:06Z</time>
      </trkpt>
      <trkpt lat="47.68763" lon="6.04799">
        <ele>233.3</ele>
        <time>2022-01-09T10:53:12Z</time>
      </trkpt>
      <trkpt lat="47.68753" lon="6.04776">
        <ele>233.84</ele>
        <time>2022-01-09T10:53:18Z</time>
      </trkpt>
      <trkpt lat="47.68743" lon="6.0475">
        <ele>234.21</ele>
        <time>2022-01-09T10:53:25Z</time>
      </trkpt>
      <trkpt lat="47.68736" lon="6.04724">
        <ele>234.73</ele>
        <time>2022-01-09T10:53:31Z</time>
      </trkpt>
      <trkpt lat="47.68728" lon="6.04697">
        <ele>235.66</ele>
        <time>2022-01-09T10:53:37Z</time>
      </trkpt>
      <trkpt lat="47.68717" lon="6.04672">
        <ele>236.78</ele>
        <time>2022-01-09T10:53:43Z</time>
      </trkpt>
      <trkpt lat="47.68705" lon="6.04648">
        <ele>237.13</ele>
        <time>2022-01-09T10:53:49Z</time>
      </trkpt>
      <trkpt lat="47.68693" lon="6.04621">
        <ele>237.19</ele>
        <time>2022-01-09T10:53:55Z</time>
      </trkpt>
      <trkpt lat="47.68685" lon="6.04594">
        <ele>237.82</ele>
        <time>2022-01-09T10:54:00Z</time>
      </trkpt>
      <trkpt lat="47.68671" lon="6.04568">
        <ele>237.73</ele>
        <time>2022-01-09T10:54:05Z</time>
      </trkpt>
      <trkpt lat="47.68653" lon="6.04554">
        <ele>238.22</ele>
        <time>2022-01-09T10:54:09Z</time>
      </trkpt>
      <trkpt lat="47.68635" lon="6.04538">
        <ele>237.71</ele>
        <time>2022-01-09T10:54:13Z</time>
      </trkpt>
      <trkpt lat="47.68618" lon="6.0455">
        <ele>236.83</ele>
        <time>2022-01-09T10:54:19Z</time>
      </trkpt>
      <trkpt lat="47.68622" lon="6.04578">
        <ele>241.69</ele>
        <time>2022-01-09T10:54:46Z</time>
      </trkpt>
    </trkseg>
  </trk>
</gpx>